Time,TemperatureF,DewpointF,PressureIn,WindDirection,WindDirectionDegrees,WindSpeedMPH,WindSpeedGustMPH,Humidity,HourlyPrecipIn,Conditions,Clouds,dailyrainin,SoftwareType,DateUTC
2013-02-20 00:02:00,18.0,2.5,30.29,NW,319,8.7,8.7,50,0.00,,CLR,0.00,VWS V14.01,2013-02-20 06:02:00,
2013-02-20 00:03:00,17.8,0.5,30.29,WNW,300,8.3,8.7,46,0.00,,CLR,0.00,VWS V14.01,2013-02-20 06:03:00,
2013-02-20 00:05:00,18.0,2.5,30.29,WNW,295,7.6,8.1,50,0.00,,CLR,0.00,VWS V14.01,2013-02-20 06:05:00,
2013-02-20 00:07:00,17.8,0.5,30.29,NW,312,8.1,8.7,46,0.00,,CLR,0.00,VWS V14.01,2013-02-20 06:07:00,
2013-02-20 00:08:00,18.0,2.5,30.32,NW,307,7.2,8.1,50,0.00,,CLR,0.00,VWS V14.01,2013-02-20 06:08:00,
2013-02-20 00:11:00,17.8,0.5,30.32,NW,304,6.3,8.7,46,0.00,,CLR,0.00,VWS V14.01,2013-02-20 06:11:00,
2013-02-20 00:12:00,17.8,0.5,30.32,NW,317,10.5,10.5,46,0.00,,CLR,0.00,VWS V14.01,2013-02-20 06:12:00,
2013-02-20 00:13:00,17.8,0.5,30.32,NW,307,8.3,10.5,46,0.00,,CLR,0.00,VWS V14.01,2013-02-20 06:13:00,
2013-02-20 00:16:00,17.8,2.3,30.32,NW,316,8.1,8.7,50,0.00,,CLR,0.00,VWS V14.01,2013-02-20 06:16:00,
2013-02-20 00:18:00,17.6,3.0,30.32,NW,324,8.3,10.1,52,0.00,,CLR,0.00,VWS V14.01,2013-02-20 06:18:00,
2013-02-20 00:19:00,17.8,2.3,30.32,WNW,293,6.3,6.3,50,0.00,,CLR,0.00,VWS V14.01,2013-02-20 06:19:00,
2013-02-20 00:21:00,17.6,0.3,30.32,NW,316,8.7,8.7,46,0.00,,CLR,0.00,VWS V14.01,2013-02-20 06:21:00,
2013-02-20 00:23:00,17.6,3.0,30.32,NW,314,6.7,10.1,52,0.00,,CLR,0.00,VWS V14.01,2013-02-20 06:23:00,
2013-02-20 00:24:00,17.6,3.0,30.32,NW,316,8.1,10.1,52,0.00,,CLR,0.00,VWS V14.01,2013-02-20 06:24:00,
2013-02-20 00:25:00,17.6,3.0,30.32,NW,314,8.1,8.1,52,0.00,,CLR,0.00,VWS V14.01,2013-02-20 06:25:00,
2013-02-20 00:26:00,17.6,3.0,30.32,NW,308,12.3,12.3,52,0.00,,CLR,0.00,VWS V14.01,2013-02-20 06:26:00,
2013-02-20 00:29:00,17.6,3.0,30.32,WNW,294,11.0,12.3,52,0.00,,CLR,0.00,VWS V14.01,2013-02-20 06:29:00,
2013-02-20 00:30:00,17.6,3.0,30.32,NW,313,7.2,7.2,52,0.00,,CLR,0.00,VWS V14.01,2013-02-20 06:30:00,
2013-02-20 00:32:00,17.6,0.3,30.32,NW,315,5.8,8.7,46,0.00,,CLR,0.00,VWS V14.01,2013-02-20 06:32:00,
2013-02-20 00:34:00,17.6,3.0,30.32,NW,307,6.3,7.6,52,0.00,,CLR,0.00,VWS V14.01,2013-02-20 06:34:00,
2013-02-20 00:35:00,17.6,3.0,30.32,NW,322,7.6,7.6,52,0.00,,CLR,0.00,VWS V14.01,2013-02-20 06:35:00,
2013-02-20 00:36:00,17.6,3.0,30.32,NW,317,8.7,8.7,52,0.00,,CLR,0.00,VWS V14.01,2013-02-20 06:36:00,
2013-02-20 00:38:00,17.4,2.8,30.32,WNW,297,8.3,8.3,52,0.00,,CLR,0.00,VWS V14.01,2013-02-20 06:38:00,
2013-02-20 00:40:00,17.4,2.8,30.32,NW,312,5.8,8.1,52,0.00,,CLR,0.00,VWS V14.01,2013-02-20 06:40:00,
2013-02-20 00:41:00,17.4,2.8,30.32,WNW,301,6.3,8.3,52,0.00,,CLR,0.00,VWS V14.01,2013-02-20 06:41:00,
2013-02-20 00:43:00,17.4,2.8,30.32,NW,318,7.6,8.1,52,0.00,,CLR,0.00,VWS V14.01,2013-02-20 06:43:00,
2013-02-20 00:45:00,17.2,2.7,30.32,NNW,332,7.6,7.6,52,0.00,,CLR,0.00,VWS V14.01,2013-02-20 06:45:00,
2013-02-20 00:46:00,17.2,2.7,30.32,NW,310,6.3,7.6,52,0.00,,CLR,0.00,VWS V14.01,2013-02-20 06:46:00,
2013-02-20 00:48:00,17.2,2.7,30.32,NW,315,7.2,8.1,52,0.00,,CLR,0.00,VWS V14.01,2013-02-20 06:48:00,
2013-02-20 00:51:00,17.1,2.5,30.32,NW,318,8.1,10.5,52,0.00,,CLR,0.00,VWS V14.01,2013-02-20 06:51:00,
2013-02-20 00:53:00,17.1,2.5,30.32,WNW,300,7.6,7.6,52,0.00,,CLR,0.00,VWS V14.01,2013-02-20 06:53:00,
2013-02-20 00:54:00,17.1,2.5,30.32,NW,313,8.7,10.1,52,0.00,,CLR,0.00,VWS V14.01,2013-02-20 06:54:00,
2013-02-20 00:56:00,17.1,2.5,30.32,NW,312,7.6,7.6,52,0.00,,CLR,0.00,VWS V14.01,2013-02-20 06:56:00,
2013-02-20 00:59:00,17.1,2.5,30.32,NW,314,7.6,8.7,52,0.00,,CLR,0.00,VWS V14.01,2013-02-20 06:59:00,
2013-02-20 01:02:00,17.1,2.5,30.32,NW,319,6.3,8.7,52,0.00,,CLR,0.00,VWS V14.01,2013-02-20 07:02:00,
2013-02-20 01:03:00,16.9,2.3,30.32,NW,315,7.2,8.1,52,0.00,,CLR,0.00,VWS V14.01,2013-02-20 07:03:00,
2013-02-20 01:04:00,16.9,2.3,30.32,NW,314,8.1,8.3,52,0.00,,CLR,0.00,VWS V14.01,2013-02-20 07:04:00,
2013-02-20 01:07:00,16.9,2.3,30.32,NNW,328,10.1,10.1,52,0.00,,CLR,0.00,VWS V14.01,2013-02-20 07:07:00,
2013-02-20 01:09:00,16.9,2.3,30.32,NNW,327,11.0,14.1,52,0.00,,CLR,0.00,VWS V14.01,2013-02-20 07:09:00,
2013-02-20 01:12:00,16.9,2.3,30.32,NW,322,13.2,13.6,52,0.00,,CLR,0.00,VWS V14.01,2013-02-20 07:12:00,
2013-02-20 01:14:00,16.7,2.1,30.32,NNW,333,10.5,10.5,52,0.00,,CLR,0.00,VWS V14.01,2013-02-20 07:14:00,
2013-02-20 01:15:00,16.9,2.3,30.32,NNW,333,13.2,14.1,52,0.00,,CLR,0.00,VWS V14.01,2013-02-20 07:15:00,
2013-02-20 01:19:00,16.7,2.1,30.32,NW,321,13.2,13.2,52,0.00,,CLR,0.00,VWS V14.01,2013-02-20 07:19:00,
2013-02-20 01:20:00,16.7,2.1,30.32,NW,326,11.0,13.2,52,0.00,,CLR,0.00,VWS V14.01,2013-02-20 07:20:00,
2013-02-20 01:22:00,16.9,2.3,30.32,NW,325,14.5,14.5,52,0.00,,CLR,0.00,VWS V14.01,2013-02-20 07:22:00,
2013-02-20 01:24:00,16.7,2.1,30.32,NNW,335,10.5,10.5,52,0.00,,CLR,0.00,VWS V14.01,2013-02-20 07:24:00,
2013-02-20 01:25:00,16.5,2.0,30.32,NNW,333,15.4,15.4,52,0.00,,CLR,0.00,VWS V14.01,2013-02-20 07:25:00,
2013-02-20 01:27:00,16.5,2.0,30.32,NNW,327,8.7,12.3,52,0.00,,CLR,0.00,VWS V14.01,2013-02-20 07:27:00,
2013-02-20 01:30:00,16.5,2.0,30.32,NW,325,12.3,12.3,52,0.00,,CLR,0.00,VWS V14.01,2013-02-20 07:30:00,
2013-02-20 01:31:00,16.5,2.0,30.32,NNW,332,8.3,12.3,52,0.00,,CLR,0.00,VWS V14.01,2013-02-20 07:31:00,
2013-02-20 01:32:00,16.5,2.0,30.32,NNW,340,13.2,13.2,52,0.00,,CLR,0.00,VWS V14.01,2013-02-20 07:32:00,
2013-02-20 01:36:00,16.5,2.0,30.32,North,353,12.8,12.8,52,0.00,,CLR,0.00,VWS V14.01,2013-02-20 07:36:00,
2013-02-20 01:38:00,16.5,2.0,30.32,NNW,333,12.3,12.8,52,0.00,,CLR,0.00,VWS V14.01,2013-02-20 07:38:00,
2013-02-20 01:41:00,16.3,1.8,30.32,NNW,332,10.1,10.5,52,0.00,,CLR,0.00,VWS V14.01,2013-02-20 07:41:00,
2013-02-20 01:42:00,16.3,1.8,30.32,NNW,332,10.1,10.5,52,0.00,,CLR,0.00,VWS V14.01,2013-02-20 07:42:00,
2013-02-20 01:43:00,16.2,1.6,30.32,NW,319,6.7,8.3,52,0.00,,CLR,0.00,VWS V14.01,2013-02-20 07:43:00,
2013-02-20 01:46:00,16.2,1.6,30.32,NW,319,11.0,11.0,52,0.00,,CLR,0.00,VWS V14.01,2013-02-20 07:46:00,
2013-02-20 01:47:00,16.2,1.6,30.32,NW,322,14.1,14.1,52,0.00,,CLR,0.00,VWS V14.01,2013-02-20 07:47:00,
2013-02-20 01:48:00,16.2,1.6,30.32,NW,324,10.5,10.5,52,0.00,,CLR,0.00,VWS V14.01,2013-02-20 07:48:00,
2013-02-20 01:49:00,16.0,1.5,30.32,NW,325,9.6,11.0,52,0.00,,CLR,0.00,VWS V14.01,2013-02-20 07:49:00,
2013-02-20 01:52:00,16.0,1.5,30.32,NW,321,10.5,12.3,52,0.00,,CLR,0.00,VWS V14.01,2013-02-20 07:52:00,
2013-02-20 01:53:00,16.0,1.5,30.32,NW,326,10.1,11.0,52,0.00,,CLR,0.00,VWS V14.01,2013-02-20 07:53:00,
2013-02-20 01:55:00,16.0,1.5,30.32,NNW,334,10.5,11.9,52,0.00,,CLR,0.00,VWS V14.01,2013-02-20 07:55:00,
2013-02-20 01:56:00,16.0,1.5,30.32,NNW,338,8.1,11.9,52,0.00,,CLR,0.00,VWS V14.01,2013-02-20 07:56:00,
2013-02-20 01:58:00,16.0,1.5,30.32,North,353,8.1,9.2,52,0.00,,CLR,0.00,VWS V14.01,2013-02-20 07:58:00,
2013-02-20 02:00:00,15.8,1.3,30.32,North,350,10.1,10.1,52,0.00,,CLR,0.00,VWS V14.01,2013-02-20 08:00:00,
2013-02-20 02:05:00,15.8,1.3,30.32,North,1,12.3,12.3,52,0.00,,CLR,0.00,VWS V14.01,2013-02-20 08:05:00,
2013-02-20 02:06:00,15.8,1.3,30.32,NNW,336,10.5,11.4,52,0.00,,CLR,0.00,VWS V14.01,2013-02-20 08:06:00,
2013-02-20 02:10:00,15.8,1.3,30.35,NNW,343,10.1,10.5,52,0.00,,CLR,0.00,VWS V14.01,2013-02-20 08:10:00,
2013-02-20 02:11:00,15.6,1.1,30.35,North,350,11.0,12.3,52,0.00,,CLR,0.00,VWS V14.01,2013-02-20 08:11:00,
2013-02-20 02:12:00,15.6,1.1,30.35,NNW,334,12.8,12.8,52,0.00,,CLR,0.00,VWS V14.01,2013-02-20 08:12:00,
2013-02-20 02:15:00,15.4,1.0,30.35,North,357,10.5,12.8,52,0.00,,CLR,0.00,VWS V14.01,2013-02-20 08:15:00,
2013-02-20 02:16:00,15.4,1.0,30.35,NNW,333,12.8,15.4,52,0.00,,CLR,0.00,VWS V14.01,2013-02-20 08:16:00,
2013-02-20 02:17:00,15.4,1.0,30.35,North,0,15.4,15.4,52,0.00,,CLR,0.00,VWS V14.01,2013-02-20 08:17:00,
2013-02-20 02:21:00,15.3,0.8,30.35,North,353,10.5,11.0,52,0.00,,CLR,0.00,VWS V14.01,2013-02-20 08:21:00,
2013-02-20 02:22:00,15.3,0.8,30.35,North,5,15.0,15.0,52,0.00,,CLR,0.00,VWS V14.01,2013-02-20 08:22:00,
2013-02-20 02:26:00,15.1,0.6,30.35,North,353,8.7,10.1,52,0.00,,CLR,0.00,VWS V14.01,2013-02-20 08:26:00,
2013-02-20 02:27:00,15.1,0.6,30.35,North,9,12.8,12.8,52,0.00,,CLR,0.00,VWS V14.01,2013-02-20 08:27:00,
2013-02-20 02:29:00,14.9,0.5,30.35,NNW,340,11.0,11.0,52,0.00,,CLR,0.00,VWS V14.01,2013-02-20 08:29:00,
2013-02-20 02:31:00,14.7,0.3,30.35,NNW,338,8.3,10.5,52,0.00,,CLR,0.00,VWS V14.01,2013-02-20 08:31:00,
2013-02-20 02:32:00,14.7,0.3,30.35,North,0,11.0,12.8,52,0.00,,CLR,0.00,VWS V14.01,2013-02-20 08:32:00,
2013-02-20 02:34:00,14.5,0.1,30.35,NNW,346,8.3,11.0,52,0.00,,CLR,0.00,VWS V14.01,2013-02-20 08:34:00,
2013-02-20 02:36:00,14.5,0.1,30.35,North,2,8.3,12.8,52,0.00,,CLR,0.00,VWS V14.01,2013-02-20 08:36:00,
2013-02-20 02:37:00,14.5,0.1,30.35,North,357,13.2,13.2,52,0.00,,CLR,0.00,VWS V14.01,2013-02-20 08:37:00,
2013-02-20 02:38:00,14.5,0.1,30.35,NNW,343,12.3,13.2,52,0.00,,CLR,0.00,VWS V14.01,2013-02-20 08:38:00,
2013-02-20 02:39:00,14.5,0.1,30.35,NNE,16,11.0,11.0,52,0.00,,CLR,0.00,VWS V14.01,2013-02-20 08:39:00,
2013-02-20 02:42:00,14.5,0.1,30.35,North,357,13.2,13.2,52,0.00,,CLR,0.00,VWS V14.01,2013-02-20 08:42:00,
2013-02-20 02:43:00,14.5,0.1,30.35,NNE,21,11.0,12.3,52,0.00,,CLR,0.00,VWS V14.01,2013-02-20 08:43:00,
2013-02-20 02:44:00,14.4,0.0,30.35,North,7,13.2,13.2,52,0.00,,CLR,0.00,VWS V14.01,2013-02-20 08:44:00,
2013-02-20 02:47:00,14.4,0.0,30.35,North,7,11.4,15.4,52,0.00,,CLR,0.00,VWS V14.01,2013-02-20 08:47:00,
2013-02-20 02:48:00,14.4,2.3,30.35,North,6,13.2,13.2,58,0.00,,CLR,0.00,VWS V14.01,2013-02-20 08:48:00,
2013-02-20 02:49:00,14.4,2.3,30.35,North,6,15.4,15.4,58,0.00,,CLR,0.00,VWS V14.01,2013-02-20 08:49:00,
2013-02-20 02:52:00,14.2,2.1,30.35,NNW,330,12.8,15.0,58,0.00,,CLR,0.00,VWS V14.01,2013-02-20 08:52:00,
2013-02-20 02:54:00,14.0,0.4,30.35,North,353,12.3,15.4,54,0.00,,CLR,0.00,VWS V14.01,2013-02-20 08:54:00,
2013-02-20 02:55:00,14.2,-0.2,30.35,NNE,20,11.4,13.2,52,0.00,,CLR,0.00,VWS V14.01,2013-02-20 08:55:00,
2013-02-20 02:58:00,13.8,0.3,30.35,North,0,15.0,15.0,54,0.00,,CLR,0.00,VWS V14.01,2013-02-20 08:58:00,
2013-02-20 03:00:00,13.6,0.1,30.35,NNW,329,13.2,13.2,54,0.00,,CLR,0.00,VWS V14.01,2013-02-20 09:00:00,
2013-02-20 03:01:00,13.6,0.1,30.35,North,2,10.5,15.0,54,0.00,,CLR,0.00,VWS V14.01,2013-02-20 09:01:00,
2013-02-20 03:03:00,13.6,0.1,30.35,NNW,342,8.3,13.2,54,0.00,,CLR,0.00,VWS V14.01,2013-02-20 09:03:00,
2013-02-20 03:05:00,13.6,0.1,30.35,North,353,12.8,12.8,54,0.00,,CLR,0.00,VWS V14.01,2013-02-20 09:05:00,
2013-02-20 03:06:00,13.6,0.1,30.35,NNE,16,11.9,15.0,54,0.00,,CLR,0.00,VWS V14.01,2013-02-20 09:06:00,
2013-02-20 03:08:00,13.6,0.1,30.32,North,353,13.2,13.2,54,0.00,,CLR,0.00,VWS V14.01,2013-02-20 09:08:00,
2013-02-20 03:10:00,13.5,-0.1,30.32,North,353,12.8,12.8,54,0.00,,CLR,0.00,VWS V14.01,2013-02-20 09:10:00,
2013-02-20 03:12:00,13.5,-0.1,30.32,North,0,12.3,14.1,54,0.00,,CLR,0.00,VWS V14.01,2013-02-20 09:12:00,
2013-02-20 03:13:00,13.6,0.1,30.32,North,2,15.0,15.0,54,0.00,,CLR,0.00,VWS V14.01,2013-02-20 09:13:00,
2013-02-20 03:16:00,13.5,-0.1,30.32,NNE,14,15.4,15.4,54,0.00,,CLR,0.00,VWS V14.01,2013-02-20 09:16:00,
2013-02-20 03:17:00,13.5,-0.1,30.32,North,350,13.6,15.4,54,0.00,,CLR,0.00,VWS V14.01,2013-02-20 09:17:00,
2013-02-20 03:20:00,13.5,-0.1,30.32,North,357,10.5,13.2,54,0.00,,CLR,0.00,VWS V14.01,2013-02-20 09:20:00,
2013-02-20 03:21:00,13.5,-0.1,30.32,North,0,11.0,13.2,54,0.00,,CLR,0.00,VWS V14.01,2013-02-20 09:21:00,
2013-02-20 03:22:00,13.5,-0.1,30.32,North,0,11.0,13.2,54,0.00,,CLR,0.00,VWS V14.01,2013-02-20 09:22:00,
2013-02-20 03:25:00,13.3,-0.2,30.32,North,6,15.4,17.9,54,0.00,,CLR,0.00,VWS V14.01,2013-02-20 09:25:00,
2013-02-20 03:27:00,13.3,-0.2,30.32,NNE,13,15.4,17.0,54,0.00,,CLR,0.00,VWS V14.01,2013-02-20 09:27:00,
2013-02-20 03:28:00,13.1,-0.4,30.32,NNE,14,13.2,17.4,54,0.00,,CLR,0.00,VWS V14.01,2013-02-20 09:28:00,
2013-02-20 03:31:00,12.9,-0.6,30.32,North,3,13.2,15.0,54,0.00,,CLR,0.00,VWS V14.01,2013-02-20 09:31:00,
2013-02-20 03:33:00,12.7,-0.8,30.32,NNE,12,10.5,12.8,54,0.00,,CLR,0.00,VWS V14.01,2013-02-20 09:33:00,
2013-02-20 03:34:00,12.7,-0.8,30.32,North,353,12.8,12.8,54,0.00,,CLR,0.00,VWS V14.01,2013-02-20 09:34:00,
2013-02-20 03:36:00,12.7,-0.8,30.32,North,10,17.4,17.4,54,0.00,,CLR,0.00,VWS V14.01,2013-02-20 09:36:00,
2013-02-20 03:38:00,12.6,-0.9,30.32,North,7,11.0,13.2,54,0.00,,CLR,0.00,VWS V14.01,2013-02-20 09:38:00,
2013-02-20 03:39:00,12.6,-0.9,30.32,North,357,10.5,13.2,54,0.00,,CLR,0.00,VWS V14.01,2013-02-20 09:39:00,
2013-02-20 03:41:00,12.6,-0.9,30.32,North,357,13.6,15.4,54,0.00,,CLR,0.00,VWS V14.01,2013-02-20 09:41:00,
2013-02-20 03:42:00,12.6,-0.9,30.32,North,5,13.2,15.4,54,0.00,,CLR,0.00,VWS V14.01,2013-02-20 09:42:00,
2013-02-20 03:44:00,12.4,-1.1,30.32,North,353,15.0,15.0,54,0.00,,CLR,0.00,VWS V14.01,2013-02-20 09:44:00,
2013-02-20 03:47:00,12.4,-1.1,30.32,North,11,11.0,13.2,54,0.00,,CLR,0.00,VWS V14.01,2013-02-20 09:47:00,
2013-02-20 03:50:00,12.2,-1.3,30.32,North,4,13.2,14.1,54,0.00,,CLR,0.00,VWS V14.01,2013-02-20 09:50:00,
2013-02-20 03:51:00,12.2,-1.3,30.32,NE,38,8.7,13.2,54,0.00,,CLR,0.00,VWS V14.01,2013-02-20 09:51:00,
2013-02-20 03:53:00,12.2,-1.3,30.32,North,357,8.7,12.8,54,0.00,,CLR,0.00,VWS V14.01,2013-02-20 09:53:00,
2013-02-20 03:55:00,12.2,-1.3,30.32,NNW,348,10.1,12.8,54,0.00,,CLR,0.00,VWS V14.01,2013-02-20 09:55:00,
2013-02-20 03:56:00,12.0,-1.4,30.32,NNE,28,11.4,14.5,54,0.00,,CLR,0.00,VWS V14.01,2013-02-20 09:56:00,
2013-02-20 03:58:00,12.0,-1.4,30.32,North,11,13.2,13.2,54,0.00,,CLR,0.00,VWS V14.01,2013-02-20 09:58:00,
2013-02-20 03:59:00,12.0,-1.4,30.32,North,2,16.8,16.8,54,0.00,,CLR,0.00,VWS V14.01,2013-02-20 09:59:00,
2013-02-20 04:00:00,12.0,-1.4,30.32,North,353,10.1,16.8,54,0.00,,CLR,0.00,VWS V14.01,2013-02-20 10:00:00,
2013-02-20 04:01:00,11.8,-1.6,30.32,North,6,8.3,10.1,54,0.00,,CLR,0.00,VWS V14.01,2013-02-20 10:01:00,
2013-02-20 04:04:00,11.7,-1.8,30.32,NNE,25,7.2,11.0,54,0.00,,CLR,0.00,VWS V14.01,2013-02-20 10:04:00,
2013-02-20 04:06:00,11.5,-1.9,30.32,North,9,9.6,12.8,54,0.00,,CLR,0.00,VWS V14.01,2013-02-20 10:06:00,
2013-02-20 04:09:00,11.3,-2.1,30.32,North,357,15.0,15.0,54,0.00,,CLR,0.00,VWS V14.01,2013-02-20 10:09:00,
2013-02-20 04:10:00,11.3,-2.1,30.32,North,350,12.3,15.0,54,0.00,,CLR,0.00,VWS V14.01,2013-02-20 10:10:00,
2013-02-20 04:11:00,11.1,-2.3,30.32,North,357,11.0,11.0,54,0.00,,CLR,0.00,VWS V14.01,2013-02-20 10:11:00,
2013-02-20 04:12:00,11.1,-2.3,30.32,NNE,32,10.1,13.2,54,0.00,,CLR,0.00,VWS V14.01,2013-02-20 10:12:00,
2013-02-20 04:14:00,11.1,-2.3,30.32,North,6,11.0,12.8,54,0.00,,CLR,0.00,VWS V14.01,2013-02-20 10:14:00,
2013-02-20 04:15:00,10.9,-2.4,30.32,NNE,14,12.8,12.8,54,0.00,,CLR,0.00,VWS V14.01,2013-02-20 10:15:00,
2013-02-20 04:16:00,10.9,-2.4,30.32,North,353,12.8,15.4,54,0.00,,CLR,0.00,VWS V14.01,2013-02-20 10:16:00,
2013-02-20 04:17:00,10.9,-2.4,30.32,North,10,15.9,17.4,54,0.00,,CLR,0.00,VWS V14.01,2013-02-20 10:17:00,
2013-02-20 04:19:00,10.8,-2.6,30.32,North,9,15.0,15.0,54,0.00,,CLR,0.00,VWS V14.01,2013-02-20 10:19:00,
2013-02-20 04:20:00,10.8,-2.6,30.32,NNE,20,14.5,14.5,54,0.00,,CLR,0.00,VWS V14.01,2013-02-20 10:20:00,
2013-02-20 04:22:00,10.6,-2.8,30.32,NNE,29,15.4,15.4,54,0.00,,CLR,0.00,VWS V14.01,2013-02-20 10:22:00,
2013-02-20 04:26:00,10.4,-2.9,30.32,North,10,11.0,13.2,54,0.00,,CLR,0.00,VWS V14.01,2013-02-20 10:26:00,
2013-02-20 04:27:00,10.4,-2.9,30.32,NNE,26,12.8,12.8,54,0.00,,CLR,0.00,VWS V14.01,2013-02-20 10:27:00,
2013-02-20 04:29:00,10.2,-3.1,30.32,North,0,13.2,13.2,54,0.00,,CLR,0.00,VWS V14.01,2013-02-20 10:29:00,
2013-02-20 04:31:00,10.2,-3.1,30.32,North,353,8.1,11.0,54,0.00,,CLR,0.00,VWS V14.01,2013-02-20 10:31:00,
2013-02-20 04:32:00,10.0,-3.3,30.32,North,7,12.3,12.3,54,0.00,,CLR,0.00,VWS V14.01,2013-02-20 10:32:00,
2013-02-20 04:34:00,10.0,-3.3,30.32,NNE,12,12.3,15.0,54,0.00,,CLR,0.00,VWS V14.01,2013-02-20 10:34:00,
2013-02-20 04:37:00,9.9,-3.5,30.32,NNE,23,11.4,13.6,54,0.00,,CLR,0.00,VWS V14.01,2013-02-20 10:37:00,
2013-02-20 04:39:00,9.9,-3.5,30.35,NNW,348,14.1,16.3,54,0.00,,CLR,0.00,VWS V14.01,2013-02-20 10:39:00,
2013-02-20 04:42:00,9.7,-3.6,30.35,NNE,12,8.3,12.8,54,0.00,,CLR,0.00,VWS V14.01,2013-02-20 10:42:00,
2013-02-20 04:44:00,9.7,-3.6,30.35,NE,37,10.1,10.1,54,0.00,,CLR,0.00,VWS V14.01,2013-02-20 10:44:00,
2013-02-20 04:45:00,9.7,-3.6,30.35,North,10,8.7,8.7,54,0.00,,CLR,0.00,VWS V14.01,2013-02-20 10:45:00,
2013-02-20 04:47:00,9.5,-3.8,30.35,NNE,14,10.5,11.0,54,0.00,,CLR,0.00,VWS V14.01,2013-02-20 10:47:00,
2013-02-20 04:48:00,9.5,-3.8,30.35,North,2,11.0,11.0,54,0.00,,CLR,0.00,VWS V14.01,2013-02-20 10:48:00,
2013-02-20 04:50:00,9.5,-3.8,30.35,NNE,15,11.0,13.2,54,0.00,,CLR,0.00,VWS V14.01,2013-02-20 10:50:00,
2013-02-20 04:53:00,9.5,-3.8,30.35,North,8,10.5,10.5,54,0.00,,CLR,0.00,VWS V14.01,2013-02-20 10:53:00,
2013-02-20 04:54:00,9.3,-4.0,30.35,North,5,8.7,10.5,54,0.00,,CLR,0.00,VWS V14.01,2013-02-20 10:54:00,
2013-02-20 04:55:00,9.3,-4.0,30.35,North,4,8.1,11.4,54,0.00,,CLR,0.00,VWS V14.01,2013-02-20 10:55:00,
2013-02-20 04:56:00,9.3,-4.0,30.35,North,5,8.3,11.0,54,0.00,,CLR,0.00,VWS V14.01,2013-02-20 10:56:00,
2013-02-20 04:59:00,9.3,-4.0,30.35,North,357,13.2,13.2,54,0.00,,CLR,0.00,VWS V14.01,2013-02-20 10:59:00,
2013-02-20 05:00:00,9.3,-4.0,30.35,North,7,12.8,13.2,54,0.00,,CLR,0.00,VWS V14.01,2013-02-20 11:00:00,
2013-02-20 05:01:00,9.1,-4.1,30.35,NNE,12,10.1,10.1,54,0.00,,CLR,0.00,VWS V14.01,2013-02-20 11:01:00,
2013-02-20 05:04:00,9.1,-4.1,30.35,North,6,10.5,10.5,54,0.00,,CLR,0.00,VWS V14.01,2013-02-20 11:04:00,
2013-02-20 05:05:00,9.1,-4.1,30.35,North,5,8.1,11.0,54,0.00,,CLR,0.00,VWS V14.01,2013-02-20 11:05:00,
2013-02-20 05:07:00,9.0,-4.3,30.35,North,357,13.2,13.2,54,0.00,,CLR,0.00,VWS V14.01,2013-02-20 11:07:00,
2013-02-20 05:10:00,8.8,-4.5,30.35,North,4,6.3,10.1,54,0.00,,CLR,0.00,VWS V14.01,2013-02-20 11:10:00,
2013-02-20 05:11:00,8.8,-4.5,30.35,NNE,17,4.0,7.6,54,0.00,,CLR,0.00,VWS V14.01,2013-02-20 11:11:00,
2013-02-20 05:12:00,8.8,-4.5,30.35,NE,50,3.1,8.1,54,0.00,,CLR,0.00,VWS V14.01,2013-02-20 11:12:00,
2013-02-20 05:15:00,8.6,-4.6,30.35,NE,46,8.1,8.7,54,0.00,,CLR,0.00,VWS V14.01,2013-02-20 11:15:00,
2013-02-20 05:16:00,8.4,-4.8,30.35,NE,49,8.3,8.3,54,0.00,,CLR,0.00,VWS V14.01,2013-02-20 11:16:00,
2013-02-20 05:18:00,8.4,-4.8,30.35,North,5,6.7,8.7,54,0.00,,CLR,0.00,VWS V14.01,2013-02-20 11:18:00,
2013-02-20 05:21:00,8.6,-4.6,30.35,North,4,13.2,13.2,54,0.00,,CLR,0.00,VWS V14.01,2013-02-20 11:21:00,
2013-02-20 05:23:00,8.6,-4.6,30.35,North,1,7.6,12.8,54,0.00,,CLR,0.00,VWS V14.01,2013-02-20 11:23:00,
2013-02-20 05:24:00,8.6,-4.6,30.35,NNE,13,10.5,11.0,54,0.00,,CLR,0.00,VWS V14.01,2013-02-20 11:24:00,
2013-02-20 05:26:00,8.6,-4.6,30.35,NE,35,8.7,11.0,54,0.00,,CLR,0.00,VWS V14.01,2013-02-20 11:26:00,
2013-02-20 05:27:00,8.6,-4.6,30.35,NNE,15,6.3,11.0,54,0.00,,CLR,0.00,VWS V14.01,2013-02-20 11:27:00,
2013-02-20 05:29:00,8.4,-4.8,30.35,NE,34,10.5,11.4,54,0.00,,CLR,0.00,VWS V14.01,2013-02-20 11:29:00,
2013-02-20 05:30:00,8.4,-4.8,30.35,North,10,5.8,11.4,54,0.00,,CLR,0.00,VWS V14.01,2013-02-20 11:30:00,
2013-02-20 05:32:00,8.4,-4.8,30.35,North,357,11.9,11.9,54,0.00,,CLR,0.00,VWS V14.01,2013-02-20 11:32:00,
2013-02-20 05:34:00,8.4,-4.8,30.35,NNE,18,8.7,10.1,54,0.00,,CLR,0.00,VWS V14.01,2013-02-20 11:34:00,
2013-02-20 05:37:00,8.2,-5.0,30.35,North,357,10.5,10.5,54,0.00,,CLR,0.00,VWS V14.01,2013-02-20 11:37:00,
2013-02-20 05:38:00,8.2,-5.0,30.35,North,7,7.6,10.5,54,0.00,,CLR,0.00,VWS V14.01,2013-02-20 11:38:00,
2013-02-20 05:40:00,8.2,-5.0,30.35,NNE,17,7.6,7.6,54,0.00,,CLR,0.00,VWS V14.01,2013-02-20 11:40:00,
2013-02-20 05:42:00,8.1,-5.1,30.35,NNE,27,5.8,8.1,54,0.00,,CLR,0.00,VWS V14.01,2013-02-20 11:42:00,
2013-02-20 05:43:00,8.1,-5.1,30.35,NNE,33,7.6,8.1,54,0.00,,CLR,0.00,VWS V14.01,2013-02-20 11:43:00,
2013-02-20 05:45:00,7.9,-5.3,30.35,NE,39,6.3,8.3,54,0.00,,CLR,0.00,VWS V14.01,2013-02-20 11:45:00,
2013-02-20 05:48:00,7.9,-5.3,30.35,NE,50,4.0,8.7,54,0.00,,CLR,0.00,VWS V14.01,2013-02-20 11:48:00,
2013-02-20 05:51:00,7.9,-5.3,30.35,NNE,22,5.4,5.4,54,0.00,,CLR,0.00,VWS V14.01,2013-02-20 11:51:00,
2013-02-20 05:53:00,7.9,-5.3,30.37,NNE,19,7.6,7.6,54,0.00,,CLR,0.00,VWS V14.01,2013-02-20 11:53:00,
2013-02-20 05:54:00,7.9,-5.3,30.37,NNE,28,5.8,8.3,54,0.00,,CLR,0.00,VWS V14.01,2013-02-20 11:54:00,
2013-02-20 05:56:00,7.9,-5.3,30.37,NE,42,7.6,7.6,54,0.00,,CLR,0.00,VWS V14.01,2013-02-20 11:56:00,
2013-02-20 05:59:00,7.9,-5.3,30.37,North,11,10.5,10.5,54,0.00,,CLR,0.00,VWS V14.01,2013-02-20 11:59:00,
2013-02-20 06:00:00,7.9,-5.3,30.37,North,6,8.7,10.1,54,0.00,,CLR,0.00,VWS V14.01,2013-02-20 12:00:00,
2013-02-20 06:03:00,7.9,-5.3,30.37,North,8,8.1,8.7,54,0.00,,CLR,0.00,VWS V14.01,2013-02-20 12:03:00,
2013-02-20 06:05:00,7.9,-5.3,30.37,NNE,25,8.3,8.3,54,0.00,,CLR,0.00,VWS V14.01,2013-02-20 12:05:00,
2013-02-20 06:06:00,7.7,-5.5,30.37,NNE,32,8.3,8.7,54,0.00,,CLR,0.00,VWS V14.01,2013-02-20 12:06:00,
2013-02-20 06:10:00,7.7,-5.5,30.37,North,7,7.6,8.7,54,0.00,,CLR,0.00,VWS V14.01,2013-02-20 12:10:00,
2013-02-20 06:11:00,7.7,-5.5,30.37,NNE,19,5.4,7.6,54,0.00,,CLR,0.00,VWS V14.01,2013-02-20 12:11:00,
2013-02-20 06:15:00,7.7,-5.5,30.37,North,9,7.6,7.6,54,0.00,,CLR,0.00,VWS V14.01,2013-02-20 12:15:00,
2013-02-20 06:16:00,7.7,-5.5,30.37,NNE,17,8.3,8.3,54,0.00,,CLR,0.00,VWS V14.01,2013-02-20 12:16:00,
2013-02-20 06:19:00,7.7,-5.5,30.37,NNE,12,5.8,6.3,54,0.00,,CLR,0.00,VWS V14.01,2013-02-20 12:19:00,
2013-02-20 06:21:00,7.5,-5.6,30.37,NNE,14,7.6,8.1,54,0.00,,CLR,0.00,VWS V14.01,2013-02-20 12:21:00,
2013-02-20 06:22:00,7.7,-5.5,30.37,NNE,14,8.7,8.7,54,0.00,,CLR,0.00,VWS V14.01,2013-02-20 12:22:00,
2013-02-20 06:26:00,7.7,-5.5,30.37,North,357,8.1,10.5,54,0.00,,CLR,0.00,VWS V14.01,2013-02-20 12:26:00,
2013-02-20 06:27:00,7.7,-5.5,30.37,North,6,8.3,8.3,54,0.00,,CLR,0.00,VWS V14.01,2013-02-20 12:27:00,
2013-02-20 06:32:00,7.5,-5.6,30.37,NNE,14,9.6,9.6,54,0.00,,CLR,0.00,VWS V14.01,2013-02-20 12:32:00,
2013-02-20 06:34:00,7.5,-5.6,30.37,NE,42,5.8,7.6,54,0.00,,CLR,0.00,VWS V14.01,2013-02-20 12:34:00,
2013-02-20 06:37:00,7.3,-5.8,30.37,NNE,25,6.3,8.1,54,0.00,,CLR,0.00,VWS V14.01,2013-02-20 12:37:00,
2013-02-20 06:38:00,7.3,-5.8,30.37,NE,47,6.3,7.6,54,0.00,,CLR,0.00,VWS V14.01,2013-02-20 12:38:00,
2013-02-20 06:39:00,7.3,-5.8,30.37,NNE,21,4.9,7.6,54,0.00,,CLR,0.00,VWS V14.01,2013-02-20 12:39:00,
2013-02-20 06:42:00,7.3,-5.8,30.37,North,8,6.7,6.7,54,0.00,,CLR,0.00,VWS V14.01,2013-02-20 12:42:00,
2013-02-20 06:43:00,7.3,-5.8,30.37,North,9,7.6,7.6,54,0.00,,CLR,0.00,VWS V14.01,2013-02-20 12:43:00,
2013-02-20 06:44:00,7.3,-5.8,30.37,North,6,5.4,7.6,54,0.00,,CLR,0.00,VWS V14.01,2013-02-20 12:44:00,
2013-02-20 06:48:00,7.5,-5.6,30.37,NNE,19,7.6,7.6,54,0.00,,CLR,0.00,VWS V14.01,2013-02-20 12:48:00,
2013-02-20 06:50:00,7.3,-5.8,30.37,NNE,21,8.3,8.3,54,0.00,,CLR,0.00,VWS V14.01,2013-02-20 12:50:00,
2013-02-20 06:53:00,7.5,-5.6,30.37,North,1,7.6,8.1,54,0.00,,CLR,0.00,VWS V14.01,2013-02-20 12:53:00,
2013-02-20 06:54:00,7.5,-5.6,30.37,North,7,4.5,8.3,54,0.00,,CLR,0.00,VWS V14.01,2013-02-20 12:54:00,
2013-02-20 06:55:00,7.5,-5.6,30.37,North,357,8.1,8.1,54,0.00,,CLR,0.00,VWS V14.01,2013-02-20 12:55:00,
2013-02-20 06:56:00,7.5,-5.6,30.37,NNE,12,5.8,8.1,54,0.00,,CLR,0.00,VWS V14.01,2013-02-20 12:56:00,
2013-02-20 06:59:00,7.5,-5.6,30.37,North,1,5.4,8.1,54,0.00,,CLR,0.00,VWS V14.01,2013-02-20 12:59:00,
2013-02-20 07:00:00,7.5,-5.6,30.37,NE,38,3.6,7.6,54,0.00,,CLR,0.00,VWS V14.01,2013-02-20 13:00:00,
2013-02-20 07:01:00,7.5,-5.6,30.37,North,5,6.7,8.1,54,0.00,,CLR,0.00,VWS V14.01,2013-02-20 13:01:00,
2013-02-20 07:04:00,7.3,-5.8,30.37,North,5,8.3,8.3,54,0.00,,CLR,0.00,VWS V14.01,2013-02-20 13:04:00,
2013-02-20 07:05:00,7.5,-5.6,30.37,NNE,23,6.3,8.1,54,0.00,,CLR,0.00,VWS V14.01,2013-02-20 13:05:00,
2013-02-20 07:06:00,7.5,-5.6,30.37,North,8,8.1,8.3,54,0.00,,CLR,0.00,VWS V14.01,2013-02-20 13:06:00,
2013-02-20 07:10:00,7.5,-5.6,30.37,NNE,21,4.9,7.6,54,0.00,,CLR,0.00,VWS V14.01,2013-02-20 13:10:00,
2013-02-20 07:11:00,7.5,-5.6,30.37,NNE,14,7.6,7.6,54,0.00,,CLR,0.00,VWS V14.01,2013-02-20 13:11:00,
2013-02-20 07:12:00,7.7,-5.5,30.37,NNE,17,6.3,8.3,54,0.00,,CLR,0.00,VWS V14.01,2013-02-20 13:12:00,
2013-02-20 07:15:00,7.7,-5.5,30.37,North,5,7.6,7.6,54,0.00,,CLR,0.00,VWS V14.01,2013-02-20 13:15:00,
2013-02-20 07:16:00,7.7,-5.5,30.37,North,0,8.3,8.3,54,0.00,,CLR,0.00,VWS V14.01,2013-02-20 13:16:00,
2013-02-20 07:18:00,7.7,-5.5,30.37,NNE,20,8.3,8.7,54,0.00,,CLR,0.00,VWS V14.01,2013-02-20 13:18:00,
2013-02-20 07:20:00,7.9,-5.3,30.37,NNE,22,5.8,8.7,54,0.00,,CLR,0.00,VWS V14.01,2013-02-20 13:20:00,
2013-02-20 07:21:00,7.9,-5.3,30.37,North,357,7.6,7.6,54,0.00,,CLR,0.00,VWS V14.01,2013-02-20 13:21:00,
2013-02-20 07:22:00,7.9,-5.3,30.37,NNE,15,8.3,8.7,54,0.00,,CLR,0.00,VWS V14.01,2013-02-20 13:22:00,
2013-02-20 07:23:00,7.9,-5.3,30.37,NNE,16,7.6,7.6,54,0.00,,CLR,0.00,VWS V14.01,2013-02-20 13:23:00,
2013-02-20 07:25:00,7.9,-5.3,30.37,NNE,15,8.7,8.7,54,0.00,,CLR,0.00,VWS V14.01,2013-02-20 13:25:00,
2013-02-20 07:26:00,7.9,-5.3,30.37,NNE,14,7.6,8.1,54,0.00,,CLR,0.00,VWS V14.01,2013-02-20 13:26:00,
2013-02-20 07:27:00,8.1,-5.1,30.37,NNE,19,7.6,8.7,54,0.00,,CLR,0.00,VWS V14.01,2013-02-20 13:27:00,
2013-02-20 07:28:00,8.1,-5.1,30.37,North,357,8.3,8.3,54,0.00,,CLR,0.00,VWS V14.01,2013-02-20 13:28:00,
2013-02-20 07:31:00,8.1,-5.1,30.37,NE,35,6.3,6.7,54,0.00,,CLR,0.00,VWS V14.01,2013-02-20 13:31:00,
2013-02-20 07:32:00,8.1,-5.1,30.37,NNE,19,4.0,6.3,54,0.00,,CLR,0.00,VWS V14.01,2013-02-20 13:32:00,
2013-02-20 07:34:00,8.1,-5.1,30.37,NNE,12,5.8,7.6,54,0.00,,CLR,0.00,VWS V14.01,2013-02-20 13:34:00,
2013-02-20 07:35:00,8.1,-5.1,30.37,NNE,31,8.3,10.1,54,0.00,,CLR,0.00,VWS V14.01,2013-02-20 13:35:00,
2013-02-20 07:36:00,8.1,-5.1,30.37,NNE,16,5.8,6.3,54,0.00,,CLR,0.00,VWS V14.01,2013-02-20 13:36:00,
2013-02-20 07:37:00,8.1,-5.1,30.37,NNE,29,5.4,6.3,54,0.00,,CLR,0.00,VWS V14.01,2013-02-20 13:37:00,
2013-02-20 07:39:00,8.2,-5.0,30.37,North,357,8.3,8.3,54,0.00,,CLR,0.00,VWS V14.01,2013-02-20 13:39:00,
2013-02-20 07:41:00,8.2,-5.0,30.37,North,11,11.0,11.0,54,0.00,,CLR,0.00,VWS V14.01,2013-02-20 13:41:00,
2013-02-20 07:42:00,8.4,-4.8,30.37,NNE,13,10.1,11.0,54,0.00,,CLR,0.00,VWS V14.01,2013-02-20 13:42:00,
2013-02-20 07:44:00,8.4,-4.8,30.37,NNE,12,8.3,10.5,54,0.00,,CLR,0.00,VWS V14.01,2013-02-20 13:44:00,
2013-02-20 07:46:00,8.4,-4.8,30.37,NNE,18,6.3,8.1,54,0.00,,CLR,0.00,VWS V14.01,2013-02-20 13:46:00,
2013-02-20 07:47:00,8.4,-4.8,30.37,NNE,23,8.7,8.7,54,0.00,,CLR,0.00,VWS V14.01,2013-02-20 13:47:00,
2013-02-20 07:48:00,8.4,-4.8,30.37,North,11,8.1,8.7,54,0.00,,CLR,0.00,VWS V14.01,2013-02-20 13:48:00,
2013-02-20 07:50:00,8.4,-4.8,30.37,North,357,8.3,10.1,54,0.00,,CLR,0.00,VWS V14.01,2013-02-20 13:50:00,
2013-02-20 07:51:00,8.6,-4.6,30.37,North,11,5.8,8.7,54,0.00,,CLR,0.00,VWS V14.01,2013-02-20 13:51:00,
2013-02-20 07:52:00,8.6,-4.6,30.37,North,5,7.2,8.7,54,0.00,,CLR,0.00,VWS V14.01,2013-02-20 13:52:00,
2013-02-20 07:54:00,8.6,-4.6,30.37,NNE,16,7.6,7.6,54,0.00,,CLR,0.00,VWS V14.01,2013-02-20 13:54:00,
2013-02-20 07:55:00,8.8,-4.5,30.37,NNE,16,4.5,4.5,54,0.00,,CLR,0.00,VWS V14.01,2013-02-20 13:55:00,
2013-02-20 07:57:00,8.8,-4.5,30.37,North,357,8.1,11.0,54,0.00,,CLR,0.00,VWS V14.01,2013-02-20 13:57:00,
2013-02-20 07:59:00,8.8,-4.5,30.37,NNE,20,5.8,9.2,54,0.00,,CLR,0.00,VWS V14.01,2013-02-20 13:59:00,
2013-02-20 08:02:00,8.8,-4.5,30.37,NNE,25,5.4,7.6,54,0.00,,CLR,0.00,VWS V14.01,2013-02-20 14:02:00,
2013-02-20 08:03:00,9.0,-4.3,30.37,North,5,10.1,10.1,54,0.00,,CLR,0.00,VWS V14.01,2013-02-20 14:03:00,
2013-02-20 08:05:00,9.0,-4.3,30.37,NNE,19,7.6,7.6,54,0.00,,CLR,0.00,VWS V14.01,2013-02-20 14:05:00,
2013-02-20 08:07:00,9.1,-4.1,30.37,NNE,20,8.1,8.1,54,0.00,,CLR,0.00,VWS V14.01,2013-02-20 14:07:00,
2013-02-20 08:08:00,9.1,-4.1,30.40,NNE,15,8.1,8.1,54,0.00,,CLR,0.00,VWS V14.01,2013-02-20 14:08:00,
2013-02-20 08:09:00,9.1,-4.1,30.40,North,11,7.6,8.7,54,0.00,,CLR,0.00,VWS V14.01,2013-02-20 14:09:00,
2013-02-20 08:11:00,9.3,-4.0,30.40,North,3,6.3,8.1,54,0.00,,CLR,0.00,VWS V14.01,2013-02-20 14:11:00,
2013-02-20 08:12:00,9.3,-4.0,30.40,North,5,4.0,4.5,54,0.00,,CLR,0.00,VWS V14.01,2013-02-20 14:12:00,
2013-02-20 08:13:00,9.3,-4.0,30.40,North,7,4.9,4.9,54,0.00,,CLR,0.00,VWS V14.01,2013-02-20 14:13:00,
2013-02-20 08:16:00,9.3,-4.0,30.40,North,357,5.8,6.3,54,0.00,,CLR,0.00,VWS V14.01,2013-02-20 14:16:00,
2013-02-20 08:18:00,9.5,-3.8,30.40,North,357,6.3,6.7,54,0.00,,CLR,0.00,VWS V14.01,2013-02-20 14:18:00,
2013-02-20 08:21:00,9.7,-3.6,30.40,North,0,4.9,5.4,54,0.00,,CLR,0.00,VWS V14.01,2013-02-20 14:21:00,
2013-02-20 08:22:00,9.7,-3.6,30.40,North,0,5.4,5.4,54,0.00,,CLR,0.00,VWS V14.01,2013-02-20 14:22:00,
2013-02-20 08:23:00,10.0,-3.3,30.40,North,0,3.1,4.9,54,0.00,,CLR,0.00,VWS V14.01,2013-02-20 14:23:00,
2013-02-20 08:27:00,10.2,-3.1,30.40,North,6,6.3,6.3,54,0.00,,CLR,0.00,VWS V14.01,2013-02-20 14:27:00,
2013-02-20 08:28:00,10.4,-2.9,30.40,North,357,7.6,8.7,54,0.00,,CLR,0.00,VWS V14.01,2013-02-20 14:28:00,
2013-02-20 08:29:00,10.4,-2.9,30.40,North,357,8.1,8.1,54,0.00,,CLR,0.00,VWS V14.01,2013-02-20 14:29:00,
2013-02-20 08:32:00,10.4,-2.9,30.40,North,357,3.6,6.3,54,0.00,,CLR,0.00,VWS V14.01,2013-02-20 14:32:00,
2013-02-20 08:33:00,10.6,-2.8,30.40,North,3,7.2,7.2,54,0.00,,CLR,0.00,VWS V14.01,2013-02-20 14:33:00,
2013-02-20 08:34:00,10.8,-2.6,30.40,North,4,8.3,8.3,54,0.00,,CLR,0.00,VWS V14.01,2013-02-20 14:34:00,
2013-02-20 08:37:00,10.9,-2.4,30.40,NNW,343,5.4,5.4,54,0.00,,CLR,0.00,VWS V14.01,2013-02-20 14:37:00,
2013-02-20 08:38:00,10.9,-2.4,30.40,NNW,340,6.3,7.2,54,0.00,,CLR,0.00,VWS V14.01,2013-02-20 14:38:00,
2013-02-20 08:39:00,10.9,-2.4,30.40,NNW,342,5.4,7.2,54,0.00,,CLR,0.00,VWS V14.01,2013-02-20 14:39:00,
2013-02-20 08:43:00,11.3,-2.1,30.40,NNW,342,5.8,5.8,54,0.00,,CLR,0.00,VWS V14.01,2013-02-20 14:43:00,
2013-02-20 08:44:00,11.3,-2.1,30.40,NW,323,8.1,8.1,54,0.00,,CLR,0.00,VWS V14.01,2013-02-20 14:44:00,
2013-02-20 08:45:00,11.5,-1.9,30.40,North,353,4.0,5.8,54,0.00,,CLR,0.00,VWS V14.01,2013-02-20 14:45:00,
2013-02-20 08:49:00,11.7,-1.8,30.40,North,353,4.9,7.6,54,0.00,,CLR,0.00,VWS V14.01,2013-02-20 14:49:00,
2013-02-20 08:50:00,11.7,-1.8,30.40,North,353,3.6,4.0,54,0.00,,CLR,0.00,VWS V14.01,2013-02-20 14:50:00,
2013-02-20 08:54:00,11.8,-1.6,30.43,NNW,327,6.3,7.6,54,0.00,,CLR,0.00,VWS V14.01,2013-02-20 14:54:00,
2013-02-20 08:55:00,11.7,-1.8,30.43,NNW,327,6.3,7.2,54,0.00,,CLR,0.00,VWS V14.01,2013-02-20 14:55:00,
2013-02-20 08:56:00,11.8,-1.6,30.43,NW,326,5.4,5.4,54,0.00,,CLR,0.00,VWS V14.01,2013-02-20 14:56:00,
2013-02-20 09:00:00,11.8,-1.6,30.43,NNW,327,7.6,7.6,54,0.00,,CLR,0.00,VWS V14.01,2013-02-20 15:00:00,
2013-02-20 09:01:00,12.0,-1.4,30.43,NNW,332,5.8,6.3,54,0.00,,CLR,0.00,VWS V14.01,2013-02-20 15:01:00,
2013-02-20 09:02:00,12.0,-1.4,30.43,NNW,332,5.4,6.3,54,0.00,,CLR,0.00,VWS V14.01,2013-02-20 15:02:00,
2013-02-20 09:05:00,12.2,-1.3,30.43,NNW,335,6.3,8.7,54,0.00,,CLR,0.00,VWS V14.01,2013-02-20 15:05:00,
2013-02-20 09:07:00,12.4,-1.1,30.43,NNW,334,2.7,6.3,54,0.00,,CLR,0.00,VWS V14.01,2013-02-20 15:07:00,
2013-02-20 09:12:00,12.7,-0.8,30.43,North,350,2.7,6.3,54,0.00,,CLR,0.00,VWS V14.01,2013-02-20 15:12:00,
2013-02-20 09:13:00,12.7,-0.8,30.43,North,350,2.2,4.0,54,0.00,,CLR,0.00,VWS V14.01,2013-02-20 15:13:00,
2013-02-20 09:17:00,13.3,-0.2,30.43,North,357,5.8,8.7,54,0.00,,CLR,0.00,VWS V14.01,2013-02-20 15:17:00,
2013-02-20 09:18:00,13.3,-0.2,30.43,NNE,15,4.0,7.2,54,0.00,,CLR,0.00,VWS V14.01,2013-02-20 15:18:00,
2013-02-20 09:22:00,13.6,0.1,30.43,North,11,7.6,8.3,54,0.00,,CLR,0.00,VWS V14.01,2013-02-20 15:22:00,
2013-02-20 09:23:00,13.6,0.1,30.43,NE,38,3.6,8.1,54,0.00,,CLR,0.00,VWS V14.01,2013-02-20 15:23:00,
2013-02-20 09:24:00,13.8,0.3,30.43,North,1,5.8,6.3,54,0.00,,CLR,0.00,VWS V14.01,2013-02-20 15:24:00,
2013-02-20 09:28:00,14.2,-0.2,30.43,North,353,4.0,4.0,52,0.00,,CLR,0.00,VWS V14.01,2013-02-20 15:28:00,
2013-02-20 09:29:00,14.2,-0.2,30.43,NNW,346,8.1,8.1,52,0.00,,CLR,0.00,VWS V14.01,2013-02-20 15:29:00,
2013-02-20 09:33:00,14.4,0.0,30.43,North,353,5.4,5.4,52,0.00,,CLR,0.00,VWS V14.01,2013-02-20 15:33:00,
2013-02-20 09:34:00,14.4,0.0,30.43,North,353,4.9,4.9,52,0.00,,CLR,0.00,VWS V14.01,2013-02-20 15:34:00,
2013-02-20 09:35:00,14.5,0.1,30.43,NNE,14,8.3,8.3,52,0.00,,CLR,0.00,VWS V14.01,2013-02-20 15:35:00,
2013-02-20 09:38:00,14.5,0.1,30.40,NNW,338,6.3,8.3,52,0.00,,CLR,0.00,VWS V14.01,2013-02-20 15:38:00,
2013-02-20 09:40:00,14.5,0.1,30.40,North,353,4.5,7.2,52,0.00,,CLR,0.00,VWS V14.01,2013-02-20 15:40:00,
2013-02-20 09:41:00,14.5,0.1,30.40,North,11,5.8,7.6,52,0.00,,CLR,0.00,VWS V14.01,2013-02-20 15:41:00,
2013-02-20 09:43:00,14.5,0.1,30.40,North,357,6.3,6.7,52,0.00,,CLR,0.00,VWS V14.01,2013-02-20 15:43:00,
2013-02-20 09:45:00,14.7,0.3,30.40,North,357,3.1,3.1,52,0.00,,CLR,0.00,VWS V14.01,2013-02-20 15:45:00,
2013-02-20 09:46:00,14.9,0.5,30.40,North,353,8.1,8.1,52,0.00,,CLR,0.00,VWS V14.01,2013-02-20 15:46:00,
2013-02-20 09:47:00,14.7,0.3,30.40,NNW,332,8.7,8.7,52,0.00,,CLR,0.00,VWS V14.01,2013-02-20 15:47:00,
2013-02-20 09:49:00,14.5,0.1,30.40,NNW,337,8.3,8.3,52,0.00,,CLR,0.00,VWS V14.01,2013-02-20 15:49:00,
2013-02-20 09:50:00,14.7,0.3,30.40,NNE,12,8.1,8.1,52,0.00,,CLR,0.00,VWS V14.01,2013-02-20 15:50:00,
2013-02-20 09:51:00,14.7,0.3,30.40,NNE,19,6.3,6.3,52,0.00,,CLR,0.00,VWS V14.01,2013-02-20 15:51:00,
2013-02-20 09:54:00,14.9,0.5,30.40,NNW,346,3.6,5.8,52,0.00,,CLR,0.00,VWS V14.01,2013-02-20 15:54:00,
2013-02-20 09:56:00,15.1,0.6,30.40,North,7,2.7,3.6,52,0.00,,CLR,0.00,VWS V14.01,2013-02-20 15:56:00,
2013-02-20 09:57:00,15.1,0.6,30.40,North,7,0.0,0.0,52,0.00,,CLR,0.00,VWS V14.01,2013-02-20 15:57:00,
2013-02-20 09:59:00,15.3,0.8,30.40,NNW,333,7.6,7.6,52,0.00,,CLR,0.00,VWS V14.01,2013-02-20 15:59:00,
2013-02-20 10:00:00,15.3,0.8,30.40,NE,35,6.3,7.2,52,0.00,,CLR,0.00,VWS V14.01,2013-02-20 16:00:00,
2013-02-20 10:01:00,15.3,0.8,30.40,NNE,14,8.1,8.1,52,0.00,,CLR,0.00,VWS V14.01,2013-02-20 16:01:00,
2013-02-20 10:02:00,15.3,0.8,30.40,North,353,5.4,5.8,52,0.00,,CLR,0.00,VWS V14.01,2013-02-20 16:02:00,
2013-02-20 10:04:00,15.3,0.8,30.40,North,350,5.4,6.3,52,0.00,,CLR,0.00,VWS V14.01,2013-02-20 16:04:00,
2013-02-20 10:05:00,15.3,0.8,30.40,NNW,342,6.3,7.6,52,0.00,,CLR,0.00,VWS V14.01,2013-02-20 16:05:00,
2013-02-20 10:07:00,15.3,0.8,30.40,NNW,338,3.1,5.8,52,0.00,,CLR,0.00,VWS V14.01,2013-02-20 16:07:00,
2013-02-20 10:08:00,15.4,1.0,30.43,North,1,8.1,8.1,52,0.00,,CLR,0.00,VWS V14.01,2013-02-20 16:08:00,
2013-02-20 10:11:00,15.4,1.0,30.43,NNE,15,5.8,10.1,52,0.00,,CLR,0.00,VWS V14.01,2013-02-20 16:11:00,
2013-02-20 10:12:00,15.4,1.0,30.43,North,6,4.5,4.9,52,0.00,,CLR,0.00,VWS V14.01,2013-02-20 16:12:00,
2013-02-20 10:13:00,15.6,1.1,30.43,North,10,3.6,5.4,52,0.00,,CLR,0.00,VWS V14.01,2013-02-20 16:13:00,
2013-02-20 10:17:00,16.2,1.6,30.43,NNE,28,0.0,5.8,52,0.00,,CLR,0.00,VWS V14.01,2013-02-20 16:17:00,
2013-02-20 10:18:00,16.3,1.8,30.43,NNE,22,8.7,8.7,52,0.00,,CLR,0.00,VWS V14.01,2013-02-20 16:18:00,
2013-02-20 10:19:00,16.5,2.0,30.43,North,353,5.8,6.7,52,0.00,,CLR,0.00,VWS V14.01,2013-02-20 16:19:00,
2013-02-20 10:22:00,16.9,-0.3,30.43,North,0,5.4,6.3,46,0.00,,CLR,0.00,VWS V14.01,2013-02-20 16:22:00,
2013-02-20 10:23:00,16.9,-0.3,30.40,North,0,2.2,5.4,46,0.00,,CLR,0.00,VWS V14.01,2013-02-20 16:23:00,
2013-02-20 10:24:00,17.1,-0.1,30.40,NE,39,3.6,3.6,46,0.00,,CLR,0.00,VWS V14.01,2013-02-20 16:24:00,
2013-02-20 10:27:00,17.6,0.3,30.40,NNW,338,5.8,8.3,46,0.00,,CLR,0.00,VWS V14.01,2013-02-20 16:27:00,
2013-02-20 10:28:00,17.6,3.0,30.40,North,353,7.6,8.1,52,0.00,,CLR,0.00,VWS V14.01,2013-02-20 16:28:00,
2013-02-20 10:30:00,17.8,0.5,30.40,NNE,12,4.9,5.8,46,0.00,,CLR,0.00,VWS V14.01,2013-02-20 16:30:00,
2013-02-20 10:33:00,18.7,3.1,30.40,North,2,3.1,3.1,50,0.00,,CLR,0.00,VWS V14.01,2013-02-20 16:33:00,
2013-02-20 10:35:00,19.2,1.8,30.40,NNW,333,2.7,5.4,46,0.00,,CLR,0.00,VWS V14.01,2013-02-20 16:35:00,
2013-02-20 10:38:00,19.6,1.2,30.40,NNE,14,4.0,4.0,44,0.00,,CLR,0.00,VWS V14.01,2013-02-20 16:38:00,
2013-02-20 10:39:00,19.4,2.0,30.40,NNE,25,8.7,8.7,46,0.00,,CLR,0.00,VWS V14.01,2013-02-20 16:39:00,
2013-02-20 10:40:00,19.4,2.0,30.40,NNE,23,4.0,4.0,46,0.00,,CLR,0.00,VWS V14.01,2013-02-20 16:40:00,
2013-02-20 10:43:00,19.8,1.4,30.40,NNE,18,4.0,4.0,44,0.00,,CLR,0.00,VWS V14.01,2013-02-20 16:43:00,
2013-02-20 10:44:00,19.6,1.2,30.40,NNW,329,4.0,4.0,44,0.00,,CLR,0.00,VWS V14.01,2013-02-20 16:44:00,
2013-02-20 10:45:00,19.6,1.2,30.40,NNW,328,7.6,8.3,44,0.00,,CLR,0.00,VWS V14.01,2013-02-20 16:45:00,
2013-02-20 10:48:00,19.0,1.7,30.40,NNW,330,3.1,3.1,46,0.00,,CLR,0.00,VWS V14.01,2013-02-20 16:48:00,
2013-02-20 10:49:00,19.0,1.7,30.40,NNW,329,2.7,3.1,46,0.00,,CLR,0.00,VWS V14.01,2013-02-20 16:49:00,
2013-02-20 10:51:00,19.0,1.7,30.40,West,275,4.9,5.8,46,0.00,,CLR,0.00,VWS V14.01,2013-02-20 16:51:00,
2013-02-20 10:53:00,19.4,2.0,30.43,West,274,3.1,3.1,46,0.00,,CLR,0.00,VWS V14.01,2013-02-20 16:53:00,
2013-02-20 10:54:00,19.8,1.4,30.43,NW,317,5.8,5.8,44,0.00,,CLR,0.00,VWS V14.01,2013-02-20 16:54:00,
2013-02-20 10:57:00,19.4,2.0,30.43,NNW,336,4.5,5.8,46,0.00,,CLR,0.00,VWS V14.01,2013-02-20 16:57:00,
2013-02-20 10:58:00,19.2,1.8,30.43,NNW,336,6.3,6.3,46,0.00,,CLR,0.00,VWS V14.01,2013-02-20 16:58:00,
2013-02-20 10:59:00,19.0,1.7,30.43,NNW,336,5.8,8.3,46,0.00,,CLR,0.00,VWS V14.01,2013-02-20 16:59:00,
2013-02-20 11:00:00,18.7,1.4,30.43,NNW,336,6.3,6.3,46,0.00,,CLR,0.00,VWS V14.01,2013-02-20 17:00:00,
2013-02-20 11:03:00,18.3,1.0,30.43,NNW,336,3.6,5.4,46,0.00,,CLR,0.00,VWS V14.01,2013-02-20 17:03:00,
2013-02-20 11:05:00,18.3,1.0,30.43,North,353,5.8,5.8,46,0.00,,CLR,0.00,VWS V14.01,2013-02-20 17:05:00,
2013-02-20 11:09:00,18.3,1.0,30.43,NW,320,7.6,8.1,46,0.00,,CLR,0.00,VWS V14.01,2013-02-20 17:09:00,
2013-02-20 11:10:00,18.3,1.0,30.43,NNW,330,7.2,7.6,46,0.00,,CLR,0.00,VWS V14.01,2013-02-20 17:10:00,
2013-02-20 11:14:00,18.0,0.7,30.43,North,350,7.2,7.2,46,0.00,,CLR,0.00,VWS V14.01,2013-02-20 17:14:00,
2013-02-20 11:15:00,18.1,0.9,30.43,North,5,6.3,7.2,46,0.00,,CLR,0.00,VWS V14.01,2013-02-20 17:15:00,
2013-02-20 11:19:00,18.7,1.4,30.43,North,357,10.1,10.1,46,0.00,,CLR,0.00,VWS V14.01,2013-02-20 17:19:00,
2013-02-20 11:20:00,18.5,1.2,30.43,North,8,8.7,8.7,46,0.00,,CLR,0.00,VWS V14.01,2013-02-20 17:20:00,
2013-02-20 11:21:00,18.5,1.2,30.43,NNE,16,10.1,10.1,46,0.00,,CLR,0.00,VWS V14.01,2013-02-20 17:21:00,
2013-02-20 11:24:00,18.7,1.4,30.43,NNW,337,7.2,7.6,46,0.00,,CLR,0.00,VWS V14.01,2013-02-20 17:24:00,
2013-02-20 11:25:00,18.9,1.5,30.43,North,349,5.4,5.8,46,0.00,,CLR,0.00,VWS V14.01,2013-02-20 17:25:00,
2013-02-20 11:26:00,19.0,1.7,30.43,NNW,327,3.6,5.8,46,0.00,,CLR,0.00,VWS V14.01,2013-02-20 17:26:00,
2013-02-20 11:27:00,19.0,1.7,30.43,NNW,327,5.8,5.8,46,0.00,,CLR,0.00,VWS V14.01,2013-02-20 17:27:00,
2013-02-20 11:30:00,18.5,1.2,30.43,North,3,8.3,8.7,46,0.00,,CLR,0.00,VWS V14.01,2013-02-20 17:30:00,
2013-02-20 11:31:00,18.7,1.4,30.43,NE,38,7.6,7.6,46,0.00,,CLR,0.00,VWS V14.01,2013-02-20 17:31:00,
2013-02-20 11:32:00,18.7,1.4,30.43,NE,38,7.6,7.6,46,0.00,,CLR,0.00,VWS V14.01,2013-02-20 17:32:00,
2013-02-20 11:36:00,19.2,1.8,30.43,North,0,5.4,6.3,46,0.00,,CLR,0.00,VWS V14.01,2013-02-20 17:36:00,
2013-02-20 11:37:00,19.2,1.8,30.43,North,10,5.8,6.3,46,0.00,,CLR,0.00,VWS V14.01,2013-02-20 17:37:00,
2013-02-20 11:38:00,19.0,1.7,30.43,North,7,8.7,11.0,46,0.00,,CLR,0.00,VWS V14.01,2013-02-20 17:38:00,
2013-02-20 11:42:00,19.4,2.0,30.43,NE,48,8.1,8.1,46,0.00,,CLR,0.00,VWS V14.01,2013-02-20 17:42:00,
2013-02-20 11:43:00,19.6,1.2,30.43,NNE,24,6.3,6.3,44,0.00,,CLR,0.00,VWS V14.01,2013-02-20 17:43:00,
2013-02-20 11:44:00,19.6,1.2,30.43,North,357,6.3,7.6,44,0.00,,CLR,0.00,VWS V14.01,2013-02-20 17:44:00,
2013-02-20 11:47:00,19.4,2.0,30.43,NNE,20,5.8,8.3,46,0.00,,CLR,0.00,VWS V14.01,2013-02-20 17:47:00,
2013-02-20 11:48:00,19.8,1.4,30.43,North,6,5.4,5.4,44,0.00,,CLR,0.00,VWS V14.01,2013-02-20 17:48:00,
2013-02-20 11:49:00,19.8,1.4,30.43,NNE,16,7.6,7.6,44,0.00,,CLR,0.00,VWS V14.01,2013-02-20 17:49:00,
2013-02-20 11:52:00,19.6,1.2,30.43,North,8,7.6,9.2,44,0.00,,CLR,0.00,VWS V14.01,2013-02-20 17:52:00,
2013-02-20 11:54:00,19.8,1.4,30.40,NNW,345,7.6,7.6,44,0.00,,CLR,0.00,VWS V14.01,2013-02-20 17:54:00,
2013-02-20 11:55:00,19.9,1.5,30.40,North,353,6.3,6.3,44,0.00,,CLR,0.00,VWS V14.01,2013-02-20 17:55:00,
2013-02-20 11:57:00,20.3,1.9,30.40,NE,34,6.3,6.3,44,0.00,,CLR,0.00,VWS V14.01,2013-02-20 17:57:00,
2013-02-20 11:59:00,20.3,1.9,30.40,North,1,8.1,8.1,44,0.00,,CLR,0.00,VWS V14.01,2013-02-20 17:59:00,
2013-02-20 12:00:00,20.3,1.9,30.40,North,9,8.3,8.3,44,0.00,,CLR,0.00,VWS V14.01,2013-02-20 18:00:00,
2013-02-20 12:01:00,20.3,1.9,30.40,North,353,7.2,8.7,44,0.00,,CLR,0.00,VWS V14.01,2013-02-20 18:01:00,
2013-02-20 12:03:00,20.3,1.9,30.40,NNE,16,3.6,6.3,44,0.00,,CLR,0.00,VWS V14.01,2013-02-20 18:03:00,
2013-02-20 12:05:00,20.5,2.0,30.40,North,357,8.1,8.1,44,0.00,,CLR,0.00,VWS V14.01,2013-02-20 18:05:00,
2013-02-20 12:06:00,20.5,2.0,30.40,NNE,28,8.7,8.7,44,0.00,,CLR,0.00,VWS V14.01,2013-02-20 18:06:00,
2013-02-20 12:08:00,20.3,1.9,30.40,North,8,7.6,8.3,44,0.00,,CLR,0.00,VWS V14.01,2013-02-20 18:08:00,
2013-02-20 12:11:00,20.3,1.9,30.40,North,6,6.3,10.1,44,0.00,,CLR,0.00,VWS V14.01,2013-02-20 18:11:00,
2013-02-20 12:12:00,20.5,2.0,30.40,North,2,8.3,10.1,44,0.00,,CLR,0.00,VWS V14.01,2013-02-20 18:12:00,
2013-02-20 12:13:00,20.5,2.0,30.40,North,4,10.1,11.0,44,0.00,,CLR,0.00,VWS V14.01,2013-02-20 18:13:00,
2013-02-20 12:14:00,20.3,1.9,30.40,North,1,8.3,8.7,44,0.00,,CLR,0.00,VWS V14.01,2013-02-20 18:14:00,
2013-02-20 12:17:00,20.8,2.4,30.40,NE,54,3.1,6.3,44,0.00,,CLR,0.00,VWS V14.01,2013-02-20 18:17:00,
2013-02-20 12:18:00,20.8,2.4,30.40,NNE,13,7.6,10.1,44,0.00,,CLR,0.00,VWS V14.01,2013-02-20 18:18:00,
2013-02-20 12:19:00,20.8,2.4,30.40,North,6,8.1,8.1,44,0.00,,CLR,0.00,VWS V14.01,2013-02-20 18:19:00,
2013-02-20 12:22:00,20.8,2.4,30.40,NE,44,8.3,8.3,44,0.00,,CLR,0.00,VWS V14.01,2013-02-20 18:22:00,
2013-02-20 12:23:00,21.0,2.5,30.40,NNE,27,5.4,5.4,44,0.00,,CLR,0.00,VWS V14.01,2013-02-20 18:23:00,
2013-02-20 12:24:00,21.0,2.5,30.40,NNE,30,4.5,7.6,44,0.00,,CLR,0.00,VWS V14.01,2013-02-20 18:24:00,
2013-02-20 12:25:00,21.2,2.7,30.40,NNE,30,3.1,4.5,44,0.00,,CLR,0.00,VWS V14.01,2013-02-20 18:25:00,
2013-02-20 12:27:00,21.2,2.7,30.40,North,1,8.3,8.7,44,0.00,,CLR,0.00,VWS V14.01,2013-02-20 18:27:00,
2013-02-20 12:28:00,21.2,2.7,30.40,NNE,23,7.6,8.7,44,0.00,,CLR,0.00,VWS V14.01,2013-02-20 18:28:00,
2013-02-20 12:29:00,21.2,2.7,30.40,NNE,22,7.6,7.6,44,0.00,,CLR,0.00,VWS V14.01,2013-02-20 18:29:00,
2013-02-20 12:30:00,21.4,2.9,30.40,NNE,24,3.6,7.6,44,0.00,,CLR,0.00,VWS V14.01,2013-02-20 18:30:00,
2013-02-20 12:33:00,21.7,3.2,30.40,North,357,8.7,8.7,44,0.00,,CLR,0.00,VWS V14.01,2013-02-20 18:33:00,
2013-02-20 12:35:00,21.9,3.4,30.40,North,0,5.8,8.3,44,0.00,,CLR,0.00,VWS V14.01,2013-02-20 18:35:00,
2013-02-20 12:38:00,21.4,2.9,30.37,NNE,16,5.4,10.1,44,0.00,,CLR,0.00,VWS V14.01,2013-02-20 18:38:00,
2013-02-20 12:39:00,21.6,3.0,30.37,NNE,28,5.8,5.8,44,0.00,,CLR,0.00,VWS V14.01,2013-02-20 18:39:00,
2013-02-20 12:40:00,21.7,3.2,30.37,NE,37,4.0,4.0,44,0.00,,CLR,0.00,VWS V14.01,2013-02-20 18:40:00,
2013-02-20 12:41:00,21.7,3.2,30.37,NE,43,3.1,3.6,44,0.00,,CLR,0.00,VWS V14.01,2013-02-20 18:41:00,
2013-02-20 12:43:00,22.1,3.5,30.37,North,357,7.6,7.6,44,0.00,,CLR,0.00,VWS V14.01,2013-02-20 18:43:00,
2013-02-20 12:44:00,21.9,3.4,30.37,North,4,6.7,7.6,44,0.00,,CLR,0.00,VWS V14.01,2013-02-20 18:44:00,
2013-02-20 12:45:00,21.9,3.4,30.37,North,2,5.4,5.4,44,0.00,,CLR,0.00,VWS V14.01,2013-02-20 18:45:00,
2013-02-20 12:46:00,21.7,3.2,30.37,NNE,23,8.7,8.7,44,0.00,,CLR,0.00,VWS V14.01,2013-02-20 18:46:00,
2013-02-20 12:49:00,21.9,3.4,30.37,NNE,23,6.7,6.7,44,0.00,,CLR,0.00,VWS V14.01,2013-02-20 18:49:00,
2013-02-20 12:51:00,21.6,3.0,30.37,NNE,16,11.0,11.0,44,0.00,,CLR,0.00,VWS V14.01,2013-02-20 18:51:00,
2013-02-20 12:52:00,21.4,2.9,30.37,North,5,5.4,11.0,44,0.00,,CLR,0.00,VWS V14.01,2013-02-20 18:52:00,
2013-02-20 12:54:00,21.6,3.0,30.37,NNE,18,6.7,6.7,44,0.00,,CLR,0.00,VWS V14.01,2013-02-20 18:54:00,
2013-02-20 12:56:00,21.6,3.0,30.37,North,11,5.8,8.1,44,0.00,,CLR,0.00,VWS V14.01,2013-02-20 18:56:00,
2013-02-20 12:57:00,21.6,3.0,30.37,North,3,5.4,8.1,44,0.00,,CLR,0.00,VWS V14.01,2013-02-20 18:57:00,
2013-02-20 12:59:00,21.9,3.4,30.37,NNE,29,2.7,2.7,44,0.00,,CLR,0.00,VWS V14.01,2013-02-20 18:59:00,
2013-02-20 13:02:00,22.5,3.9,30.37,NNE,27,4.9,4.9,44,0.00,,CLR,0.00,VWS V14.01,2013-02-20 19:02:00,
2013-02-20 13:03:00,22.5,3.9,30.37,NE,38,3.6,4.9,44,0.00,,CLR,0.00,VWS V14.01,2013-02-20 19:03:00,
2013-02-20 13:04:00,22.8,4.2,30.37,North,10,3.1,5.8,44,0.00,,CLR,0.00,VWS V14.01,2013-02-20 19:04:00,
2013-02-20 13:07:00,23.0,4.3,30.37,NNE,22,5.4,5.4,44,0.00,,CLR,0.00,VWS V14.01,2013-02-20 19:07:00,
2013-02-20 13:09:00,23.0,4.3,30.37,NNE,15,4.0,5.8,44,0.00,,CLR,0.00,VWS V14.01,2013-02-20 19:09:00,
2013-02-20 13:10:00,23.0,4.3,30.37,NNE,14,5.4,5.4,44,0.00,,CLR,0.00,VWS V14.01,2013-02-20 19:10:00,
2013-02-20 13:13:00,22.6,4.0,30.37,NNE,19,8.3,8.3,44,0.00,,CLR,0.00,VWS V14.01,2013-02-20 19:13:00,
2013-02-20 13:15:00,22.5,3.9,30.37,NE,43,6.3,8.1,44,0.00,,CLR,0.00,VWS V14.01,2013-02-20 19:15:00,
2013-02-20 13:18:00,22.8,4.2,30.37,NE,44,0.0,0.0,44,0.00,,CLR,0.00,VWS V14.01,2013-02-20 19:18:00,
2013-02-20 13:20:00,23.2,4.5,30.37,NE,43,0.0,4.0,44,0.00,,CLR,0.00,VWS V14.01,2013-02-20 19:20:00,
2013-02-20 13:21:00,23.5,4.8,30.37,North,357,7.6,7.6,44,0.00,,CLR,0.00,VWS V14.01,2013-02-20 19:21:00,
2013-02-20 13:23:00,23.4,4.7,30.35,North,353,5.8,5.8,44,0.00,,CLR,0.00,VWS V14.01,2013-02-20 19:23:00,
2013-02-20 13:25:00,23.4,4.7,30.35,NNW,337,4.0,4.0,44,0.00,,CLR,0.00,VWS V14.01,2013-02-20 19:25:00,
2013-02-20 13:26:00,23.4,4.7,30.35,NNW,344,4.0,4.0,44,0.00,,CLR,0.00,VWS V14.01,2013-02-20 19:26:00,
2013-02-20 13:29:00,23.2,4.5,30.35,NNW,342,0.0,0.0,44,0.00,,CLR,0.00,VWS V14.01,2013-02-20 19:29:00,
2013-02-20 13:31:00,23.2,4.5,30.35,NE,45,4.0,6.3,44,0.00,,CLR,0.00,VWS V14.01,2013-02-20 19:31:00,
2013-02-20 13:32:00,23.5,4.8,30.35,NE,45,5.4,5.4,44,0.00,,CLR,0.00,VWS V14.01,2013-02-20 19:32:00,
2013-02-20 13:34:00,23.9,5.2,30.35,NE,48,4.0,4.0,44,0.00,,CLR,0.00,VWS V14.01,2013-02-20 19:34:00,
2013-02-20 13:36:00,24.3,5.5,30.35,NE,49,2.7,2.7,44,0.00,,CLR,0.00,VWS V14.01,2013-02-20 19:36:00,
2013-02-20 13:37:00,24.6,5.8,30.35,NNE,24,2.7,5.4,44,0.00,,CLR,0.00,VWS V14.01,2013-02-20 19:37:00,
2013-02-20 13:38:00,24.4,5.7,30.35,NNE,20,0.0,5.4,44,0.00,,CLR,0.00,VWS V14.01,2013-02-20 19:38:00,
2013-02-20 13:39:00,24.6,5.8,30.35,NNE,26,2.7,4.0,44,0.00,,CLR,0.00,VWS V14.01,2013-02-20 19:39:00,
2013-02-20 13:41:00,24.6,5.8,30.35,NE,43,4.5,6.3,44,0.00,,CLR,0.00,VWS V14.01,2013-02-20 19:41:00,
2013-02-20 13:42:00,24.8,6.0,30.35,NE,41,3.1,3.6,44,0.00,,CLR,0.00,VWS V14.01,2013-02-20 19:42:00,
2013-02-20 13:45:00,24.8,6.0,30.35,NE,34,2.7,4.0,44,0.00,,CLR,0.00,VWS V14.01,2013-02-20 19:45:00,
2013-02-20 13:47:00,25.0,5.1,30.35,NNE,23,6.3,6.3,42,0.00,,CLR,0.00,VWS V14.01,2013-02-20 19:47:00,
2013-02-20 13:48:00,25.0,5.1,30.35,North,10,6.3,6.3,42,0.00,,CLR,0.00,VWS V14.01,2013-02-20 19:48:00,
2013-02-20 13:50:00,24.8,6.0,30.35,NE,44,0.0,8.1,44,0.00,,CLR,0.00,VWS V14.01,2013-02-20 19:50:00,
2013-02-20 13:53:00,24.8,6.0,30.35,NE,45,0.0,0.0,44,0.00,,CLR,0.00,VWS V14.01,2013-02-20 19:53:00,
2013-02-20 13:55:00,25.0,5.1,30.35,NE,45,0.0,0.0,42,0.00,,CLR,0.00,VWS V14.01,2013-02-20 19:55:00,
2013-02-20 13:56:00,25.0,5.1,30.35,NNE,29,3.6,3.6,42,0.00,,CLR,0.00,VWS V14.01,2013-02-20 19:56:00,
2013-02-20 13:58:00,25.0,5.1,30.35,NE,38,3.1,5.8,42,0.00,,CLR,0.00,VWS V14.01,2013-02-20 19:58:00,
2013-02-20 13:59:00,24.8,6.0,30.35,North,10,6.3,6.3,44,0.00,,CLR,0.00,VWS V14.01,2013-02-20 19:59:00,
2013-02-20 14:00:00,24.4,5.7,30.35,North,8,0.0,0.0,44,0.00,,CLR,0.00,VWS V14.01,2013-02-20 20:00:00,
2013-02-20 14:02:00,24.4,5.7,30.35,NNE,22,0.0,0.0,44,0.00,,CLR,0.00,VWS V14.01,2013-02-20 20:02:00,
2013-02-20 14:03:00,24.4,5.7,30.35,NNE,22,0.0,2.7,44,0.00,,CLR,0.00,VWS V14.01,2013-02-20 20:03:00,
2013-02-20 14:04:00,24.4,5.7,30.35,NNE,25,3.1,3.1,44,0.00,,CLR,0.00,VWS V14.01,2013-02-20 20:04:00,
2013-02-20 14:06:00,24.6,5.8,30.35,NNE,24,2.2,2.2,44,0.00,,CLR,0.00,VWS V14.01,2013-02-20 20:06:00,
2013-02-20 14:07:00,24.8,6.0,30.35,NNE,23,4.9,4.9,44,0.00,,CLR,0.00,VWS V14.01,2013-02-20 20:07:00,
2013-02-20 14:09:00,24.6,5.8,30.35,NE,34,4.0,8.3,44,0.00,,CLR,0.00,VWS V14.01,2013-02-20 20:09:00,
2013-02-20 14:12:00,24.4,5.7,30.35,NNE,21,3.6,3.6,44,0.00,,CLR,0.00,VWS V14.01,2013-02-20 20:12:00,
2013-02-20 14:13:00,24.3,5.5,30.35,NNE,16,2.7,5.4,44,0.00,,CLR,0.00,VWS V14.01,2013-02-20 20:13:00,
2013-02-20 14:14:00,24.3,5.5,30.35,NE,39,0.0,2.7,44,0.00,,CLR,0.00,VWS V14.01,2013-02-20 20:14:00,
2013-02-20 14:15:00,24.3,5.5,30.35,NE,39,0.0,2.7,44,0.00,,CLR,0.00,VWS V14.01,2013-02-20 20:15:00,
2013-02-20 14:17:00,24.3,5.5,30.35,North,353,4.9,5.4,44,0.00,,CLR,0.00,VWS V14.01,2013-02-20 20:17:00,
2013-02-20 14:18:00,24.3,5.5,30.35,North,353,3.1,5.4,44,0.00,,CLR,0.00,VWS V14.01,2013-02-20 20:18:00,
2013-02-20 14:19:00,24.1,5.3,30.35,North,353,0.0,2.7,44,0.00,,CLR,0.00,VWS V14.01,2013-02-20 20:19:00,
2013-02-20 14:20:00,24.1,5.3,30.35,North,353,2.2,2.2,44,0.00,,CLR,0.00,VWS V14.01,2013-02-20 20:20:00,
2013-02-20 14:22:00,24.1,5.3,30.35,North,350,4.0,4.0,44,0.00,,CLR,0.00,VWS V14.01,2013-02-20 20:22:00,
2013-02-20 14:23:00,24.1,5.3,30.35,North,350,0.0,0.0,44,0.00,,CLR,0.00,VWS V14.01,2013-02-20 20:23:00,
2013-02-20 14:25:00,23.9,5.2,30.35,North,353,0.0,0.0,44,0.00,,CLR,0.00,VWS V14.01,2013-02-20 20:25:00,
2013-02-20 14:27:00,24.1,5.3,30.35,North,353,3.6,3.6,44,0.00,,CLR,0.00,VWS V14.01,2013-02-20 20:27:00,
2013-02-20 14:29:00,24.1,5.3,30.35,NE,49,0.0,3.6,44,0.00,,CLR,0.00,VWS V14.01,2013-02-20 20:29:00,
2013-02-20 14:31:00,24.4,5.7,30.35,NE,49,0.0,0.0,44,0.00,,CLR,0.00,VWS V14.01,2013-02-20 20:31:00,
2013-02-20 14:32:00,24.4,5.7,30.35,NE,49,0.0,0.0,44,0.00,,CLR,0.00,VWS V14.01,2013-02-20 20:32:00,
2013-02-20 14:34:00,24.6,5.8,30.35,NE,49,4.0,4.0,44,0.00,,CLR,0.00,VWS V14.01,2013-02-20 20:34:00,
2013-02-20 14:36:00,24.8,6.0,30.35,NE,49,0.0,3.6,44,0.00,,CLR,0.00,VWS V14.01,2013-02-20 20:36:00,
2013-02-20 14:38:00,24.8,6.0,30.35,NE,49,0.0,0.0,44,0.00,,CLR,0.00,VWS V14.01,2013-02-20 20:38:00,
2013-02-20 14:39:00,24.8,6.0,30.35,NE,49,0.0,0.0,44,0.00,,CLR,0.00,VWS V14.01,2013-02-20 20:39:00,
2013-02-20 14:40:00,24.8,6.0,30.35,NE,49,0.0,0.0,44,0.00,,CLR,0.00,VWS V14.01,2013-02-20 20:40:00,
2013-02-20 14:41:00,25.0,5.1,30.35,NE,50,0.0,4.0,42,0.00,,CLR,0.00,VWS V14.01,2013-02-20 20:41:00,
2013-02-20 14:43:00,24.8,6.0,30.35,NE,50,2.7,2.7,44,0.00,,CLR,0.00,VWS V14.01,2013-02-20 20:43:00,
2013-02-20 14:44:00,24.8,6.0,30.35,NE,50,0.0,2.7,44,0.00,,CLR,0.00,VWS V14.01,2013-02-20 20:44:00,
2013-02-20 14:46:00,25.0,5.1,30.35,NE,50,0.0,0.0,42,0.00,,CLR,0.00,VWS V14.01,2013-02-20 20:46:00,
2013-02-20 14:47:00,24.8,6.0,30.35,NE,50,0.0,0.0,44,0.00,,CLR,0.00,VWS V14.01,2013-02-20 20:47:00,
2013-02-20 14:49:00,24.8,6.0,30.35,NE,50,0.0,0.0,44,0.00,,CLR,0.00,VWS V14.01,2013-02-20 20:49:00,
2013-02-20 14:51:00,24.8,6.0,30.35,NE,42,3.1,3.1,44,0.00,,CLR,0.00,VWS V14.01,2013-02-20 20:51:00,
2013-02-20 14:52:00,24.8,6.0,30.35,NNE,17,2.7,2.7,44,0.00,,CLR,0.00,VWS V14.01,2013-02-20 20:52:00,
2013-02-20 14:54:00,24.4,5.7,30.35,NNE,16,2.7,2.7,44,0.00,,CLR,0.00,VWS V14.01,2013-02-20 20:54:00,
2013-02-20 14:55:00,24.3,5.5,30.35,NNE,16,2.2,2.7,44,0.00,,CLR,0.00,VWS V14.01,2013-02-20 20:55:00,
2013-02-20 14:57:00,23.9,5.2,30.35,North,1,2.2,3.1,44,0.00,,CLR,0.00,VWS V14.01,2013-02-20 20:57:00,
2013-02-20 14:58:00,23.7,5.0,30.35,North,1,2.7,2.7,44,0.00,,CLR,0.00,VWS V14.01,2013-02-20 20:58:00,
2013-02-20 14:59:00,23.5,4.8,30.35,North,4,3.1,3.1,44,0.00,,CLR,0.00,VWS V14.01,2013-02-20 20:59:00,
2013-02-20 15:00:00,23.5,4.8,30.35,North,4,4.0,4.0,44,0.00,,CLR,0.00,VWS V14.01,2013-02-20 21:00:00,
2013-02-20 15:02:00,23.4,4.7,30.35,NNE,15,5.4,7.6,44,0.00,,CLR,0.00,VWS V14.01,2013-02-20 21:02:00,
2013-02-20 15:04:00,23.2,4.5,30.35,North,6,3.6,4.9,44,0.00,,CLR,0.00,VWS V14.01,2013-02-20 21:04:00,
2013-02-20 15:05:00,23.0,4.3,30.35,NNE,25,5.4,5.8,44,0.00,,CLR,0.00,VWS V14.01,2013-02-20 21:05:00,
2013-02-20 15:06:00,23.0,4.3,30.35,NNE,24,3.1,3.1,44,0.00,,CLR,0.00,VWS V14.01,2013-02-20 21:06:00,
2013-02-20 15:08:00,23.2,4.5,30.35,NE,37,4.0,4.0,44,0.00,,CLR,0.00,VWS V14.01,2013-02-20 21:08:00,
2013-02-20 15:09:00,23.2,4.5,30.35,NNE,25,2.7,2.7,44,0.00,,CLR,0.00,VWS V14.01,2013-02-20 21:09:00,
2013-02-20 15:10:00,23.4,4.7,30.35,NNE,25,2.2,3.1,44,0.00,,CLR,0.00,VWS V14.01,2013-02-20 21:10:00,
2013-02-20 15:13:00,23.4,4.7,30.35,NNE,25,2.2,3.1,44,0.00,,CLR,0.00,VWS V14.01,2013-02-20 21:13:00,
2013-02-20 15:15:00,23.5,4.8,30.35,NNE,29,0.0,3.6,44,0.00,,CLR,0.00,VWS V14.01,2013-02-20 21:15:00,
2013-02-20 15:18:00,23.5,4.8,30.35,NNE,29,4.0,4.0,44,0.00,,CLR,0.00,VWS V14.01,2013-02-20 21:18:00,
2013-02-20 15:20:00,23.7,5.0,30.35,NNE,33,4.0,4.0,44,0.00,,CLR,0.00,VWS V14.01,2013-02-20 21:20:00,
2013-02-20 15:21:00,23.5,4.8,30.35,NE,35,8.1,8.1,44,0.00,,CLR,0.00,VWS V14.01,2013-02-20 21:21:00,
2013-02-20 15:24:00,23.5,4.8,30.35,NE,39,3.6,4.9,44,0.00,,CLR,0.00,VWS V14.01,2013-02-20 21:24:00,
2013-02-20 15:25:00,23.5,4.8,30.35,NE,40,2.7,4.0,44,0.00,,CLR,0.00,VWS V14.01,2013-02-20 21:25:00,
2013-02-20 15:27:00,23.5,4.8,30.35,NE,39,6.3,6.3,44,0.00,,CLR,0.00,VWS V14.01,2013-02-20 21:27:00,
2013-02-20 15:29:00,23.5,4.8,30.35,North,10,3.1,3.1,44,0.00,,CLR,0.00,VWS V14.01,2013-02-20 21:29:00,
2013-02-20 15:30:00,23.5,4.8,30.35,NE,34,4.0,4.0,44,0.00,,CLR,0.00,VWS V14.01,2013-02-20 21:30:00,
2013-02-20 15:33:00,23.5,4.8,30.35,North,11,5.4,5.4,44,0.00,,CLR,0.00,VWS V14.01,2013-02-20 21:33:00,
2013-02-20 15:34:00,23.5,4.8,30.35,NE,35,5.8,5.8,44,0.00,,CLR,0.00,VWS V14.01,2013-02-20 21:34:00,
2013-02-20 15:35:00,23.5,4.8,30.35,NNE,32,7.6,7.6,44,0.00,,CLR,0.00,VWS V14.01,2013-02-20 21:35:00,
2013-02-20 15:39:00,23.4,4.7,30.35,NNE,14,5.8,5.8,44,0.00,,CLR,0.00,VWS V14.01,2013-02-20 21:39:00,
2013-02-20 15:40:00,23.2,4.5,30.35,NNE,33,5.4,8.3,44,0.00,,CLR,0.00,VWS V14.01,2013-02-20 21:40:00,
2013-02-20 15:41:00,23.4,4.7,30.35,NE,36,4.0,6.3,44,0.00,,CLR,0.00,VWS V14.01,2013-02-20 21:41:00,
2013-02-20 15:44:00,23.2,4.5,30.35,NE,42,5.4,5.4,44,0.00,,CLR,0.00,VWS V14.01,2013-02-20 21:44:00,
2013-02-20 15:45:00,23.2,4.5,30.35,NNE,28,3.1,3.1,44,0.00,,CLR,0.00,VWS V14.01,2013-02-20 21:45:00,
2013-02-20 15:46:00,23.2,4.5,30.35,NNE,22,3.1,3.6,44,0.00,,CLR,0.00,VWS V14.01,2013-02-20 21:46:00,
2013-02-20 15:47:00,23.2,4.5,30.35,NE,43,3.6,6.3,44,0.00,,CLR,0.00,VWS V14.01,2013-02-20 21:47:00,
2013-02-20 15:49:00,23.2,4.5,30.35,NE,36,8.1,8.1,44,0.00,,CLR,0.00,VWS V14.01,2013-02-20 21:49:00,
2013-02-20 15:50:00,23.2,4.5,30.35,NE,44,3.6,8.1,44,0.00,,CLR,0.00,VWS V14.01,2013-02-20 21:50:00,
2013-02-20 15:51:00,23.2,4.5,30.35,NE,45,2.7,8.1,44,0.00,,CLR,0.00,VWS V14.01,2013-02-20 21:51:00,
2013-02-20 15:52:00,23.2,4.5,30.35,NE,36,4.0,5.4,44,0.00,,CLR,0.00,VWS V14.01,2013-02-20 21:52:00,
2013-02-20 15:55:00,23.2,4.5,30.32,NE,37,4.9,6.3,44,0.00,,CLR,0.00,VWS V14.01,2013-02-20 21:55:00,
2013-02-20 15:56:00,23.2,4.5,30.32,NE,45,3.6,5.8,44,0.00,,CLR,0.00,VWS V14.01,2013-02-20 21:56:00,
2013-02-20 15:57:00,23.2,4.5,30.32,NE,40,2.7,3.1,44,0.00,,CLR,0.00,VWS V14.01,2013-02-20 21:57:00,
2013-02-20 16:01:00,23.0,4.3,30.32,NNE,31,5.8,6.3,44,0.00,,CLR,0.00,VWS V14.01,2013-02-20 22:01:00,
2013-02-20 16:02:00,23.2,4.5,30.32,NE,40,3.6,3.6,44,0.00,,CLR,0.00,VWS V14.01,2013-02-20 22:02:00,
2013-02-20 16:06:00,23.2,4.5,30.32,NE,36,4.5,4.5,44,0.00,,CLR,0.00,VWS V14.01,2013-02-20 22:06:00,
2013-02-20 16:08:00,23.4,4.7,30.32,NNE,16,4.0,5.4,44,0.00,,CLR,0.00,VWS V14.01,2013-02-20 22:08:00,
2013-02-20 16:11:00,23.0,4.3,30.32,North,8,6.3,6.3,44,0.00,,CLR,0.00,VWS V14.01,2013-02-20 22:11:00,
2013-02-20 16:12:00,23.0,4.3,30.32,NNE,14,3.1,6.3,44,0.00,,CLR,0.00,VWS V14.01,2013-02-20 22:12:00,
2013-02-20 16:14:00,22.8,4.2,30.32,NNE,17,7.6,9.2,44,0.00,,CLR,0.00,VWS V14.01,2013-02-20 22:14:00,
2013-02-20 16:16:00,22.6,4.0,30.32,North,9,4.9,5.4,44,0.00,,CLR,0.00,VWS V14.01,2013-02-20 22:16:00,
2013-02-20 16:17:00,22.6,4.0,30.32,North,9,4.0,5.4,44,0.00,,CLR,0.00,VWS V14.01,2013-02-20 22:17:00,
2013-02-20 16:19:00,22.5,3.9,30.32,NNE,22,5.4,5.4,44,0.00,,CLR,0.00,VWS V14.01,2013-02-20 22:19:00,
2013-02-20 16:20:00,22.5,3.9,30.32,NNE,22,0.0,5.8,44,0.00,,CLR,0.00,VWS V14.01,2013-02-20 22:20:00,
2013-02-20 16:22:00,22.5,3.9,30.32,NNE,26,5.8,5.8,44,0.00,,CLR,0.00,VWS V14.01,2013-02-20 22:22:00,
2013-02-20 16:23:00,22.5,3.9,30.32,NE,43,5.8,5.8,44,0.00,,CLR,0.00,VWS V14.01,2013-02-20 22:23:00,
2013-02-20 16:25:00,22.5,3.9,30.32,North,10,4.0,7.6,44,0.00,,CLR,0.00,VWS V14.01,2013-02-20 22:25:00,
2013-02-20 16:27:00,22.5,3.9,30.32,North,6,6.3,6.3,44,0.00,,CLR,0.00,VWS V14.01,2013-02-20 22:27:00,
2013-02-20 16:29:00,22.3,3.7,30.32,North,357,5.8,5.8,44,0.00,,CLR,0.00,VWS V14.01,2013-02-20 22:29:00,
2013-02-20 16:30:00,22.1,3.5,30.32,North,357,6.3,8.1,44,0.00,,CLR,0.00,VWS V14.01,2013-02-20 22:30:00,
2013-02-20 16:31:00,22.1,3.5,30.32,North,0,5.8,8.1,44,0.00,,CLR,0.00,VWS V14.01,2013-02-20 22:31:00,
2013-02-20 16:32:00,22.1,3.5,30.32,NNE,32,3.6,5.8,44,0.00,,CLR,0.00,VWS V14.01,2013-02-20 22:32:00,
2013-02-20 16:34:00,22.1,3.5,30.32,NNE,33,4.9,4.9,44,0.00,,CLR,0.00,VWS V14.01,2013-02-20 22:34:00,
2013-02-20 16:35:00,22.1,3.5,30.32,NNE,26,3.6,4.9,44,0.00,,CLR,0.00,VWS V14.01,2013-02-20 22:35:00,
2013-02-20 16:36:00,22.1,3.5,30.32,NNE,29,5.8,5.8,44,0.00,,CLR,0.00,VWS V14.01,2013-02-20 22:36:00,
2013-02-20 16:39:00,22.1,3.5,30.32,NNE,21,5.8,6.3,44,0.00,,CLR,0.00,VWS V14.01,2013-02-20 22:39:00,
2013-02-20 16:41:00,22.1,3.5,30.32,NNE,17,7.6,7.6,44,0.00,,CLR,0.00,VWS V14.01,2013-02-20 22:41:00,
2013-02-20 16:43:00,21.9,3.4,30.32,NE,46,5.4,7.6,44,0.00,,CLR,0.00,VWS V14.01,2013-02-20 22:43:00,
2013-02-20 16:44:00,21.9,3.4,30.32,NNE,24,4.0,4.0,44,0.00,,CLR,0.00,VWS V14.01,2013-02-20 22:44:00,
2013-02-20 16:46:00,22.1,6.3,30.32,NNE,28,2.7,2.7,50,0.00,,CLR,0.00,VWS V14.01,2013-02-20 22:46:00,
2013-02-20 16:49:00,22.1,3.5,30.32,NNE,32,4.0,5.8,44,0.00,,CLR,0.00,VWS V14.01,2013-02-20 22:49:00,
2013-02-20 16:50:00,22.1,3.5,30.32,NE,37,4.5,7.6,44,0.00,,CLR,0.00,VWS V14.01,2013-02-20 22:50:00,
2013-02-20 16:51:00,22.1,3.5,30.32,NNE,14,5.4,5.4,44,0.00,,CLR,0.00,VWS V14.01,2013-02-20 22:51:00,
2013-02-20 16:54:00,21.9,3.4,30.32,NE,48,5.4,5.4,44,0.00,,CLR,0.00,VWS V14.01,2013-02-20 22:54:00,
2013-02-20 16:55:00,21.9,3.4,30.32,NE,34,3.1,6.3,44,0.00,,CLR,0.00,VWS V14.01,2013-02-20 22:55:00,
2013-02-20 16:57:00,21.9,3.4,30.32,NNE,28,4.9,5.4,44,0.00,,CLR,0.00,VWS V14.01,2013-02-20 22:57:00,
2013-02-20 16:59:00,21.9,6.1,30.32,NNE,27,5.4,7.6,50,0.00,,CLR,0.00,VWS V14.01,2013-02-20 22:59:00,
2013-02-20 17:00:00,21.9,6.1,30.32,NNE,25,5.8,5.8,50,0.00,,CLR,0.00,VWS V14.01,2013-02-20 23:00:00,
2013-02-20 17:01:00,21.9,6.1,30.32,NE,56,5.8,5.8,50,0.00,,CLR,0.00,VWS V14.01,2013-02-20 23:01:00,
2013-02-20 17:03:00,21.9,6.1,30.32,NE,41,4.9,4.9,50,0.00,,CLR,0.00,VWS V14.01,2013-02-20 23:03:00,
2013-02-20 17:05:00,21.9,6.1,30.32,NE,50,3.6,6.3,50,0.00,,CLR,0.00,VWS V14.01,2013-02-20 23:05:00,
2013-02-20 17:06:00,22.1,6.3,30.32,NNE,33,4.0,4.0,50,0.00,,CLR,0.00,VWS V14.01,2013-02-20 23:06:00,
2013-02-20 17:08:00,22.1,6.3,30.32,NE,38,8.1,8.1,50,0.00,,CLR,0.00,VWS V14.01,2013-02-20 23:08:00,
2013-02-20 17:10:00,21.9,6.1,30.32,NE,41,3.1,3.1,50,0.00,,CLR,0.00,VWS V14.01,2013-02-20 23:10:00,
2013-02-20 17:11:00,21.9,6.1,30.32,NE,41,3.1,3.1,50,0.00,,CLR,0.00,VWS V14.01,2013-02-20 23:11:00,
2013-02-20 17:12:00,21.9,6.1,30.32,NE,53,5.4,5.4,50,0.00,,CLR,0.00,VWS V14.01,2013-02-20 23:12:00,
2013-02-20 17:13:00,21.9,6.1,30.32,NNE,30,3.6,3.6,50,0.00,,CLR,0.00,VWS V14.01,2013-02-20 23:13:00,
2013-02-20 17:16:00,21.9,6.1,30.32,NE,34,6.3,6.3,50,0.00,,CLR,0.00,VWS V14.01,2013-02-20 23:16:00,
2013-02-20 17:17:00,21.9,6.1,30.32,NE,50,5.4,8.3,50,0.00,,CLR,0.00,VWS V14.01,2013-02-20 23:17:00,
2013-02-20 17:19:00,21.7,6.0,30.32,NE,40,2.2,3.6,50,0.00,,CLR,0.00,VWS V14.01,2013-02-20 23:19:00,
2013-02-20 17:21:00,21.7,6.0,30.32,NE,50,3.1,5.4,50,0.00,,CLR,0.00,VWS V14.01,2013-02-20 23:21:00,
2013-02-20 17:22:00,21.6,5.8,30.32,NE,50,3.1,4.0,50,0.00,,CLR,0.00,VWS V14.01,2013-02-20 23:22:00,
2013-02-20 17:23:00,21.6,5.8,30.29,NNE,30,2.7,2.7,50,0.00,,CLR,0.00,VWS V14.01,2013-02-20 23:23:00,
2013-02-20 17:24:00,21.6,5.8,30.29,NE,42,2.7,4.0,50,0.00,,CLR,0.00,VWS V14.01,2013-02-20 23:24:00,
2013-02-20 17:26:00,21.4,5.6,30.29,NE,39,4.0,4.0,50,0.00,,CLR,0.00,VWS V14.01,2013-02-20 23:26:00,
2013-02-20 17:27:00,21.4,5.6,30.29,NE,37,2.2,4.0,50,0.00,,CLR,0.00,VWS V14.01,2013-02-20 23:27:00,
2013-02-20 17:28:00,21.2,5.5,30.29,NNE,33,6.3,8.1,50,0.00,,CLR,0.00,VWS V14.01,2013-02-20 23:28:00,
2013-02-20 17:29:00,21.2,5.5,30.29,NE,38,3.6,8.1,50,0.00,,CLR,0.00,VWS V14.01,2013-02-20 23:29:00,
2013-02-20 17:32:00,21.2,5.5,30.29,NNE,33,3.1,4.0,50,0.00,,CLR,0.00,VWS V14.01,2013-02-20 23:32:00,
2013-02-20 17:34:00,21.0,5.3,30.29,NNE,30,2.7,4.9,50,0.00,,CLR,0.00,VWS V14.01,2013-02-20 23:34:00,
2013-02-20 17:35:00,21.0,5.3,30.29,NNE,33,3.6,4.9,50,0.00,,CLR,0.00,VWS V14.01,2013-02-20 23:35:00,
2013-02-20 17:37:00,21.0,5.3,30.29,NNE,33,3.6,4.9,50,0.00,,CLR,0.00,VWS V14.01,2013-02-20 23:37:00,
2013-02-20 17:38:00,21.0,5.3,30.29,NE,37,2.2,4.0,50,0.00,,CLR,0.00,VWS V14.01,2013-02-20 23:38:00,
2013-02-20 17:39:00,21.0,5.3,30.29,NE,39,3.1,3.1,50,0.00,,CLR,0.00,VWS V14.01,2013-02-20 23:39:00,
2013-02-20 17:40:00,20.8,5.1,30.29,NE,39,3.6,3.6,50,0.00,,CLR,0.00,VWS V14.01,2013-02-20 23:40:00,
2013-02-20 17:42:00,20.8,5.1,30.29,NE,40,3.1,3.1,50,0.00,,CLR,0.00,VWS V14.01,2013-02-20 23:42:00,
2013-02-20 17:45:00,20.8,5.1,30.29,ENE,63,4.0,5.4,50,0.00,,CLR,0.00,VWS V14.01,2013-02-20 23:45:00,
2013-02-20 17:48:00,20.7,5.0,30.29,ENE,63,3.6,5.8,50,0.00,,CLR,0.00,VWS V14.01,2013-02-20 23:48:00,
2013-02-20 17:50:00,20.5,4.8,30.29,NE,52,4.0,4.0,50,0.00,,CLR,0.00,VWS V14.01,2013-02-20 23:50:00,
2013-02-20 17:54:00,20.3,4.6,30.29,ENE,57,5.4,5.4,50,0.00,,CLR,0.00,VWS V14.01,2013-02-20 23:54:00,
2013-02-20 17:55:00,20.3,4.6,30.29,ENE,57,4.9,5.4,50,0.00,,CLR,0.00,VWS V14.01,2013-02-20 23:55:00,
2013-02-20 18:00:00,20.3,4.6,30.29,NE,46,2.2,2.2,50,0.00,,CLR,0.00,VWS V14.01,2013-02-21 00:00:00,
2013-02-20 18:01:00,20.1,4.5,30.29,NE,47,2.7,3.6,50,0.00,,CLR,0.00,VWS V14.01,2013-02-21 00:01:00,
2013-02-20 18:05:00,20.1,4.5,30.29,NE,50,4.0,4.0,50,0.00,,CLR,0.00,VWS V14.01,2013-02-21 00:05:00,
2013-02-20 18:06:00,20.1,4.5,30.29,NE,55,4.0,5.4,50,0.00,,CLR,0.00,VWS V14.01,2013-02-21 00:06:00,
2013-02-20 18:07:00,19.9,4.3,30.29,NE,56,2.2,3.6,50,0.00,,CLR,0.00,VWS V14.01,2013-02-21 00:07:00,
2013-02-20 18:11:00,19.9,4.3,30.29,NE,56,4.9,4.9,50,0.00,,CLR,0.00,VWS V14.01,2013-02-21 00:11:00,
2013-02-20 18:12:00,19.9,4.3,30.29,NE,41,4.9,4.9,50,0.00,,CLR,0.00,VWS V14.01,2013-02-21 00:12:00,
2013-02-20 18:13:00,19.9,4.3,30.29,NE,41,0.0,4.9,50,0.00,,CLR,0.00,VWS V14.01,2013-02-21 00:13:00,
2013-02-20 18:16:00,19.9,4.3,30.29,NE,42,2.7,3.1,50,0.00,,CLR,0.00,VWS V14.01,2013-02-21 00:16:00,
2013-02-20 18:17:00,19.9,4.3,30.29,NE,42,2.7,3.1,50,0.00,,CLR,0.00,VWS V14.01,2013-02-21 00:17:00,
2013-02-20 18:18:00,19.9,4.3,30.29,NE,43,3.1,4.0,50,0.00,,CLR,0.00,VWS V14.01,2013-02-21 00:18:00,
2013-02-20 18:22:00,19.9,4.3,30.29,ENE,60,5.8,5.8,50,0.00,,CLR,0.00,VWS V14.01,2013-02-21 00:22:00,
2013-02-20 18:23:00,19.9,4.3,30.29,ENE,60,4.9,5.8,50,0.00,,CLR,0.00,VWS V14.01,2013-02-21 00:23:00,
2013-02-20 18:24:00,19.9,4.3,30.29,ENE,60,2.7,3.6,50,0.00,,CLR,0.00,VWS V14.01,2013-02-21 00:24:00,
2013-02-20 18:28:00,19.9,4.3,30.29,NNE,30,5.8,6.3,50,0.00,,CLR,0.00,VWS V14.01,2013-02-21 00:28:00,
2013-02-20 18:29:00,19.9,4.3,30.29,NNE,31,2.7,5.4,50,0.00,,CLR,0.00,VWS V14.01,2013-02-21 00:29:00,
2013-02-20 18:33:00,19.9,4.3,30.29,NE,36,3.1,3.6,50,0.00,,CLR,0.00,VWS V14.01,2013-02-21 00:33:00,
2013-02-20 18:34:00,19.9,4.3,30.29,NE,54,4.0,5.4,50,0.00,,CLR,0.00,VWS V14.01,2013-02-21 00:34:00,
2013-02-20 18:38:00,20.1,4.5,30.29,NE,45,4.0,4.0,50,0.00,,CLR,0.00,VWS V14.01,2013-02-21 00:38:00,
2013-02-20 18:39:00,20.1,4.5,30.29,NNE,28,3.6,5.4,50,0.00,,CLR,0.00,VWS V14.01,2013-02-21 00:39:00,
2013-02-20 18:44:00,19.9,4.3,30.29,NE,34,3.1,5.8,50,0.00,,CLR,0.00,VWS V14.01,2013-02-21 00:44:00,
2013-02-20 18:45:00,19.9,4.3,30.29,NNE,29,4.9,6.3,50,0.00,,CLR,0.00,VWS V14.01,2013-02-21 00:45:00,
2013-02-20 18:49:00,19.9,4.3,30.29,ENE,57,5.8,5.8,50,0.00,,CLR,0.00,VWS V14.01,2013-02-21 00:49:00,
2013-02-20 18:50:00,19.9,4.3,30.29,ENE,60,4.0,5.4,50,0.00,,CLR,0.00,VWS V14.01,2013-02-21 00:50:00,
2013-02-20 18:54:00,19.9,4.3,30.29,NNE,27,4.0,4.0,50,0.00,,CLR,0.00,VWS V14.01,2013-02-21 00:54:00,
2013-02-20 18:55:00,19.9,4.3,30.29,NE,35,3.6,5.8,50,0.00,,CLR,0.00,VWS V14.01,2013-02-21 00:55:00,
2013-02-20 18:59:00,19.9,4.3,30.29,NE,39,5.8,5.8,50,0.00,,CLR,0.00,VWS V14.01,2013-02-21 00:59:00,
2013-02-20 19:00:00,19.9,4.3,30.29,NE,52,3.6,5.8,50,0.00,,CLR,0.00,VWS V14.01,2013-02-21 01:00:00,
2013-02-20 19:05:00,19.9,4.3,30.29,NNE,24,2.7,2.7,50,0.00,,CLR,0.00,VWS V14.01,2013-02-21 01:05:00,
2013-02-20 19:06:00,19.9,4.3,30.29,NNE,24,2.7,3.1,50,0.00,,CLR,0.00,VWS V14.01,2013-02-21 01:06:00,
2013-02-20 19:10:00,19.9,4.3,30.29,NNE,30,3.1,4.0,50,0.00,,CLR,0.00,VWS V14.01,2013-02-21 01:10:00,
2013-02-20 19:11:00,19.9,4.3,30.29,NNE,28,3.1,3.1,50,0.00,,CLR,0.00,VWS V14.01,2013-02-21 01:11:00,
2013-02-20 19:12:00,19.9,4.3,30.29,NE,45,3.1,4.0,50,0.00,,CLR,0.00,VWS V14.01,2013-02-21 01:12:00,
2013-02-20 19:15:00,19.9,4.3,30.29,NE,51,2.2,2.2,50,0.00,,CLR,0.00,VWS V14.01,2013-02-21 01:15:00,
2013-02-20 19:16:00,19.9,4.3,30.29,NE,53,3.1,3.6,50,0.00,,CLR,0.00,VWS V14.01,2013-02-21 01:16:00,
2013-02-20 19:17:00,19.9,4.3,30.29,NE,55,4.5,4.5,50,0.00,,CLR,0.00,VWS V14.01,2013-02-21 01:17:00,
2013-02-20 19:20:00,19.9,4.3,30.29,NE,38,2.7,2.7,50,0.00,,CLR,0.00,VWS V14.01,2013-02-21 01:20:00,
2013-02-20 19:21:00,19.9,4.3,30.29,NE,41,3.6,3.6,50,0.00,,CLR,0.00,VWS V14.01,2013-02-21 01:21:00,
2013-02-20 19:22:00,19.9,4.3,30.29,NE,41,3.1,3.6,50,0.00,,CLR,0.00,VWS V14.01,2013-02-21 01:22:00,
2013-02-20 19:23:00,19.9,4.3,30.29,NE,39,3.6,4.0,50,0.00,,CLR,0.00,VWS V14.01,2013-02-21 01:23:00,
2013-02-20 19:26:00,19.9,4.3,30.29,NNE,30,3.1,3.1,50,0.00,,CLR,0.00,VWS V14.01,2013-02-21 01:26:00,
2013-02-20 19:27:00,19.9,4.3,30.29,NNE,30,2.7,3.1,50,0.00,,CLR,0.00,VWS V14.01,2013-02-21 01:27:00,
2013-02-20 19:29:00,19.9,6.0,30.29,NNE,32,3.6,3.6,54,0.00,,CLR,0.00,VWS V14.01,2013-02-21 01:29:00,
2013-02-20 19:31:00,19.9,6.0,30.29,NE,47,2.7,3.1,54,0.00,,CLR,0.00,VWS V14.01,2013-02-21 01:31:00,
2013-02-20 19:32:00,19.9,6.0,30.29,NE,47,0.0,0.0,54,0.00,,CLR,0.00,VWS V14.01,2013-02-21 01:32:00,
2013-02-20 19:33:00,19.9,6.0,30.29,NE,47,0.0,3.1,54,0.00,,CLR,0.00,VWS V14.01,2013-02-21 01:33:00,
2013-02-20 19:34:00,19.9,6.0,30.29,NE,48,0.0,2.7,54,0.00,,CLR,0.00,VWS V14.01,2013-02-21 01:34:00,
2013-02-20 19:37:00,19.9,6.0,30.29,NE,47,3.1,3.1,54,0.00,,CLR,0.00,VWS V14.01,2013-02-21 01:37:00,
2013-02-20 19:38:00,19.9,6.0,30.29,NE,50,2.2,2.7,54,0.00,,CLR,0.00,VWS V14.01,2013-02-21 01:38:00,
2013-02-20 19:39:00,19.9,6.0,30.29,NE,50,0.0,2.7,54,0.00,,CLR,0.00,VWS V14.01,2013-02-21 01:39:00,
2013-02-20 19:42:00,19.9,6.0,30.29,NE,48,3.6,3.6,54,0.00,,CLR,0.00,VWS V14.01,2013-02-21 01:42:00,
2013-02-20 19:43:00,19.9,6.0,30.29,NE,52,3.1,3.1,54,0.00,,CLR,0.00,VWS V14.01,2013-02-21 01:43:00,
2013-02-20 19:44:00,19.9,6.0,30.29,NE,53,4.9,4.9,54,0.00,,CLR,0.00,VWS V14.01,2013-02-21 01:44:00,
2013-02-20 19:48:00,19.9,6.0,30.29,NE,55,2.2,2.2,54,0.00,,CLR,0.00,VWS V14.01,2013-02-21 01:48:00,
2013-02-20 19:49:00,19.9,6.0,30.29,NE,56,2.7,3.1,54,0.00,,CLR,0.00,VWS V14.01,2013-02-21 01:49:00,
2013-02-20 19:53:00,19.9,6.0,30.29,ENE,62,2.7,3.1,54,0.00,,CLR,0.00,VWS V14.01,2013-02-21 01:53:00,
2013-02-20 19:54:00,19.9,6.0,30.29,ENE,62,0.0,3.1,54,0.00,,CLR,0.00,VWS V14.01,2013-02-21 01:54:00,
2013-02-20 19:55:00,19.9,6.0,30.29,ENE,62,3.6,3.6,54,0.00,,CLR,0.00,VWS V14.01,2013-02-21 01:55:00,
2013-02-20 19:59:00,19.9,6.0,30.29,ENE,62,2.2,4.0,54,0.00,,CLR,0.00,VWS V14.01,2013-02-21 01:59:00,
2013-02-20 20:00:00,19.9,6.0,30.29,ENE,62,2.7,2.7,54,0.00,,CLR,0.00,VWS V14.01,2013-02-21 02:00:00,
2013-02-20 20:04:00,19.9,6.0,30.29,East,90,6.3,6.3,54,0.00,,CLR,0.00,VWS V14.01,2013-02-21 02:04:00,
2013-02-20 20:05:00,19.9,6.0,30.29,ENE,77,3.6,6.3,54,0.00,,CLR,0.00,VWS V14.01,2013-02-21 02:05:00,
2013-02-20 20:06:00,19.9,6.0,30.29,East,80,3.6,5.8,54,0.00,,CLR,0.00,VWS V14.01,2013-02-21 02:06:00,
2013-02-20 20:10:00,20.1,6.2,30.29,ENE,70,2.7,2.7,54,0.00,,CLR,0.00,VWS V14.01,2013-02-21 02:10:00,
2013-02-20 20:11:00,20.1,6.2,30.29,ENE,68,3.1,3.1,54,0.00,,CLR,0.00,VWS V14.01,2013-02-21 02:11:00,
2013-02-20 20:16:00,20.3,6.3,30.29,ENE,68,3.6,6.3,54,0.00,,CLR,0.00,VWS V14.01,2013-02-21 02:16:00,
2013-02-20 20:21:00,20.3,6.3,30.29,East,85,2.2,3.1,54,0.00,,CLR,0.00,VWS V14.01,2013-02-21 02:21:00,
2013-02-20 20:22:00,20.3,6.3,30.29,ENE,76,4.9,5.8,54,0.00,,CLR,0.00,VWS V14.01,2013-02-21 02:22:00,
2013-02-20 20:26:00,20.3,6.3,30.32,ENE,76,3.1,3.1,54,0.00,,CLR,0.00,VWS V14.01,2013-02-21 02:26:00,
2013-02-20 20:27:00,20.3,6.3,30.32,ENE,76,0.0,3.1,54,0.00,,CLR,0.00,VWS V14.01,2013-02-21 02:27:00,
2013-02-20 20:28:00,20.3,6.3,30.32,ENE,74,3.6,3.6,54,0.00,,CLR,0.00,VWS V14.01,2013-02-21 02:28:00,
2013-02-20 20:31:00,20.3,6.3,30.32,ENE,78,2.7,3.6,54,0.00,,CLR,0.00,VWS V14.01,2013-02-21 02:31:00,
2013-02-20 20:32:00,20.3,6.3,30.32,ENE,78,2.2,3.1,54,0.00,,CLR,0.00,VWS V14.01,2013-02-21 02:32:00,
2013-02-20 20:33:00,20.3,6.3,30.32,ENE,78,2.7,3.1,54,0.00,,CLR,0.00,VWS V14.01,2013-02-21 02:33:00,
2013-02-20 20:37:00,20.3,6.3,30.32,East,79,3.6,3.6,54,0.00,,CLR,0.00,VWS V14.01,2013-02-21 02:37:00,
2013-02-20 20:38:00,20.3,6.3,30.32,East,81,5.8,5.8,54,0.00,,CLR,0.00,VWS V14.01,2013-02-21 02:38:00,
2013-02-20 20:39:00,20.3,6.3,30.32,East,85,2.7,5.4,54,0.00,,CLR,0.00,VWS V14.01,2013-02-21 02:39:00,
2013-02-20 20:42:00,20.3,6.3,30.32,ENE,76,3.6,3.6,54,0.00,,CLR,0.00,VWS V14.01,2013-02-21 02:42:00,
2013-02-20 20:43:00,20.3,6.3,30.32,ENE,74,4.0,5.8,54,0.00,,CLR,0.00,VWS V14.01,2013-02-21 02:43:00,
2013-02-20 20:45:00,20.3,6.3,30.32,ENE,73,4.5,4.5,54,0.00,,CLR,0.00,VWS V14.01,2013-02-21 02:45:00,
2013-02-20 20:47:00,20.1,6.2,30.32,NNE,29,3.6,4.9,54,0.00,,CLR,0.00,VWS V14.01,2013-02-21 02:47:00,
2013-02-20 20:48:00,20.1,6.2,30.32,NE,52,3.1,4.9,54,0.00,,CLR,0.00,VWS V14.01,2013-02-21 02:48:00,
2013-02-20 20:49:00,20.1,6.2,30.32,NE,52,3.6,3.6,54,0.00,,CLR,0.00,VWS V14.01,2013-02-21 02:49:00,
2013-02-20 20:50:00,20.1,6.2,30.32,NE,52,3.1,3.1,54,0.00,,CLR,0.00,VWS V14.01,2013-02-21 02:50:00,
2013-02-20 20:53:00,20.1,6.2,30.32,NE,52,2.2,2.7,54,0.00,,CLR,0.00,VWS V14.01,2013-02-21 02:53:00,
2013-02-20 20:54:00,20.1,6.2,30.32,NE,52,0.0,2.2,54,0.00,,CLR,0.00,VWS V14.01,2013-02-21 02:54:00,
2013-02-20 20:55:00,20.1,6.2,30.32,NE,52,3.6,4.0,54,0.00,,CLR,0.00,VWS V14.01,2013-02-21 02:55:00,
2013-02-20 20:58:00,20.1,6.2,30.32,NE,52,0.0,0.0,54,0.00,,CLR,0.00,VWS V14.01,2013-02-21 02:58:00,
2013-02-20 20:59:00,20.1,6.2,30.32,NE,54,0.0,3.1,54,0.00,,CLR,0.00,VWS V14.01,2013-02-21 02:59:00,
2013-02-20 21:01:00,20.1,6.2,30.32,NE,54,0.0,0.0,54,0.00,,CLR,0.00,VWS V14.01,2013-02-21 03:01:00,
2013-02-20 21:04:00,20.1,6.2,30.32,ENE,72,5.4,5.4,54,0.00,,OVC120,0.00,VWS V14.01,2013-02-21 03:04:00,
2013-02-20 21:05:00,20.1,6.2,30.32,ENE,72,2.2,3.1,54,0.00,,OVC120,0.00,VWS V14.01,2013-02-21 03:05:00,
2013-02-20 21:07:00,20.1,6.2,30.32,ENE,72,0.0,0.0,54,0.00,,OVC120,0.00,VWS V14.01,2013-02-21 03:07:00,
2013-02-20 21:09:00,19.9,6.0,30.32,ENE,62,2.7,3.1,54,0.00,,OVC120,0.00,VWS V14.01,2013-02-21 03:09:00,
2013-02-20 21:11:00,19.9,6.0,30.32,ENE,62,3.1,3.6,54,0.00,,OVC120,0.00,VWS V14.01,2013-02-21 03:11:00,
2013-02-20 21:12:00,19.9,6.0,30.32,ENE,62,2.7,3.1,54,0.00,,OVC120,0.00,VWS V14.01,2013-02-21 03:12:00,
2013-02-20 21:14:00,19.8,5.8,30.32,ENE,62,2.7,2.7,54,0.00,,OVC120,0.00,VWS V14.01,2013-02-21 03:14:00,
2013-02-20 21:16:00,19.8,5.8,30.32,ENE,62,0.0,0.0,54,0.00,,OVC120,0.00,VWS V14.01,2013-02-21 03:16:00,
2013-02-20 21:17:00,19.8,5.8,30.32,ENE,62,2.7,3.1,54,0.00,,OVC120,0.00,VWS V14.01,2013-02-21 03:17:00,
2013-02-20 21:19:00,19.6,5.7,30.32,ENE,62,0.0,0.0,54,0.00,,OVC120,0.00,VWS V14.01,2013-02-21 03:19:00,
2013-02-20 21:21:00,19.6,5.7,30.32,ENE,62,2.7,3.1,54,0.00,,OVC120,0.00,VWS V14.01,2013-02-21 03:21:00,
2013-02-20 21:22:00,19.6,5.7,30.32,ENE,62,0.0,0.0,54,0.00,,OVC120,0.00,VWS V14.01,2013-02-21 03:22:00,
2013-02-20 21:24:00,19.4,6.3,30.32,ENE,62,0.0,0.0,56,0.00,,OVC120,0.00,VWS V14.01,2013-02-21 03:24:00,
2013-02-20 21:26:00,19.4,6.3,30.32,ENE,68,3.6,4.0,56,0.00,,OVC120,0.00,VWS V14.01,2013-02-21 03:26:00,
2013-02-20 21:27:00,19.2,6.1,30.32,ENE,76,5.8,5.8,56,0.00,,OVC120,0.00,VWS V14.01,2013-02-21 03:27:00,
2013-02-20 21:28:00,19.2,6.1,30.32,ENE,78,4.0,5.8,56,0.00,,OVC120,0.00,VWS V14.01,2013-02-21 03:28:00,
2013-02-20 21:29:00,19.2,6.1,30.32,ENE,78,3.1,3.6,56,0.00,,OVC120,0.00,VWS V14.01,2013-02-21 03:29:00,
2013-02-20 21:32:00,19.2,6.1,30.32,ENE,78,4.5,4.5,56,0.00,,OVC120,0.00,VWS V14.01,2013-02-21 03:32:00,
2013-02-20 21:33:00,19.0,5.9,30.32,ENE,77,3.1,5.4,56,0.00,,OVC120,0.00,VWS V14.01,2013-02-21 03:33:00,
2013-02-20 21:35:00,19.0,5.9,30.32,ENE,77,3.1,4.0,56,0.00,,OVC120,0.00,VWS V14.01,2013-02-21 03:35:00,
2013-02-20 21:38:00,19.0,5.9,30.32,ENE,77,2.7,2.7,56,0.00,,OVC120,0.00,VWS V14.01,2013-02-21 03:38:00,
2013-02-20 21:40:00,19.0,5.9,30.32,ENE,77,3.1,4.0,56,0.00,,OVC120,0.00,VWS V14.01,2013-02-21 03:40:00,
2013-02-20 21:43:00,19.2,6.1,30.32,ENE,77,3.6,3.6,56,0.00,,OVC120,0.00,VWS V14.01,2013-02-21 03:43:00,
2013-02-20 21:44:00,19.2,6.1,30.32,ENE,77,3.6,3.6,56,0.00,,OVC120,0.00,VWS V14.01,2013-02-21 03:44:00,
2013-02-20 21:46:00,19.2,6.1,30.32,ENE,78,4.0,4.0,56,0.00,,OVC120,0.00,VWS V14.01,2013-02-21 03:46:00,
2013-02-20 21:49:00,19.2,6.1,30.32,ENE,78,2.2,4.0,56,0.00,,OVC120,0.00,VWS V14.01,2013-02-21 03:49:00,
2013-02-20 21:52:00,19.2,7.6,30.32,ENE,78,0.0,0.0,60,0.00,,OVC120,0.00,VWS V14.01,2013-02-21 03:52:00,
2013-02-20 21:54:00,19.2,7.6,30.32,ENE,78,2.7,3.1,60,0.00,,OVC120,0.00,VWS V14.01,2013-02-21 03:54:00,
2013-02-20 21:59:00,19.2,7.6,30.32,ENE,78,3.1,3.1,60,0.00,,OVC120,0.00,VWS V14.01,2013-02-21 03:59:00,
2013-02-20 22:01:00,19.2,7.6,30.32,ENE,78,4.9,4.9,60,0.00,,OVC120,0.00,VWS V14.01,2013-02-21 04:01:00,
2013-02-20 22:04:00,19.2,7.6,30.32,ENE,78,3.6,3.6,60,0.00,,OVC110,0.00,VWS V14.01,2013-02-21 04:04:00,
2013-02-20 22:05:00,19.2,7.6,30.32,ENE,77,3.1,3.6,60,0.00,,OVC110,0.00,VWS V14.01,2013-02-21 04:05:00,
2013-02-20 22:06:00,19.2,7.6,30.32,ENE,78,3.1,3.1,60,0.00,,OVC110,0.00,VWS V14.01,2013-02-21 04:06:00,
2013-02-20 22:07:00,19.2,7.6,30.32,ENE,78,3.6,3.6,60,0.00,,OVC110,0.00,VWS V14.01,2013-02-21 04:07:00,
2013-02-20 22:10:00,19.2,7.6,30.32,ENE,78,3.6,3.6,60,0.00,,OVC110,0.00,VWS V14.01,2013-02-21 04:10:00,
2013-02-20 22:11:00,19.2,7.6,30.32,ENE,73,3.6,3.6,60,0.00,,OVC110,0.00,VWS V14.01,2013-02-21 04:11:00,
2013-02-20 22:13:00,19.2,7.6,30.32,ENE,70,3.1,3.1,60,0.00,,OVC110,0.00,VWS V14.01,2013-02-21 04:13:00,
2013-02-20 22:15:00,19.2,7.6,30.32,ENE,59,2.7,2.7,60,0.00,,OVC110,0.00,VWS V14.01,2013-02-21 04:15:00,
2013-02-20 22:16:00,19.2,7.6,30.32,NE,53,3.6,3.6,60,0.00,,OVC110,0.00,VWS V14.01,2013-02-21 04:16:00,
2013-02-20 22:18:00,19.2,7.6,30.32,NE,42,0.0,3.1,60,0.00,,OVC110,0.00,VWS V14.01,2013-02-21 04:18:00,
2013-02-20 22:20:00,19.2,7.6,30.32,NE,42,3.1,3.1,60,0.00,,OVC110,0.00,VWS V14.01,2013-02-21 04:20:00,
2013-02-20 22:21:00,19.2,9.7,30.32,NE,43,2.7,3.6,66,0.00,,OVC110,0.00,VWS V14.01,2013-02-21 04:21:00,
2013-02-20 22:22:00,19.2,9.7,30.32,NE,43,3.1,3.6,66,0.00,,OVC110,0.00,VWS V14.01,2013-02-21 04:22:00,
2013-02-20 22:24:00,19.2,9.7,30.32,NE,42,4.0,4.5,66,0.00,,OVC110,0.00,VWS V14.01,2013-02-21 04:24:00,
2013-02-20 22:26:00,19.2,9.7,30.32,NE,47,3.6,3.6,66,0.00,,OVC110,0.00,VWS V14.01,2013-02-21 04:26:00,
2013-02-20 22:27:00,19.2,9.7,30.32,NE,47,0.0,3.6,66,0.00,,OVC110,0.00,VWS V14.01,2013-02-21 04:27:00,
2013-02-20 22:28:00,19.2,9.7,30.32,NE,47,3.1,3.1,66,0.00,,OVC110,0.00,VWS V14.01,2013-02-21 04:28:00,
2013-02-20 22:29:00,19.2,9.7,30.32,NE,46,3.6,3.6,66,0.00,,OVC110,0.00,VWS V14.01,2013-02-21 04:29:00,
2013-02-20 22:31:00,19.2,9.7,30.32,NE,47,3.1,3.1,66,0.00,,OVC110,0.00,VWS V14.01,2013-02-21 04:31:00,
2013-02-20 22:32:00,19.2,9.7,30.32,NE,47,3.6,3.6,66,0.00,,OVC110,0.00,VWS V14.01,2013-02-21 04:32:00,
2013-02-20 22:33:00,19.2,9.7,30.32,NE,47,3.6,4.0,66,0.00,,OVC110,0.00,VWS V14.01,2013-02-21 04:33:00,
2013-02-20 22:34:00,19.2,9.7,30.32,NE,47,3.1,3.6,66,0.00,,OVC110,0.00,VWS V14.01,2013-02-21 04:34:00,
2013-02-20 22:38:00,19.2,9.7,30.32,NE,38,3.1,3.6,66,0.00,,OVC110,0.00,VWS V14.01,2013-02-21 04:38:00,
2013-02-20 22:39:00,19.2,9.7,30.32,NE,41,2.2,4.0,66,0.00,,OVC110,0.00,VWS V14.01,2013-02-21 04:39:00,
2013-02-20 22:40:00,19.2,9.7,30.32,NE,42,3.1,4.0,66,0.00,,OVC110,0.00,VWS V14.01,2013-02-21 04:40:00,
2013-02-20 22:43:00,19.2,9.7,30.32,NE,42,3.6,3.6,66,0.00,,OVC110,0.00,VWS V14.01,2013-02-21 04:43:00,
2013-02-20 22:44:00,19.2,9.7,30.32,NE,42,3.1,3.6,66,0.00,,OVC110,0.00,VWS V14.01,2013-02-21 04:44:00,
2013-02-20 22:45:00,19.2,9.7,30.32,NE,42,2.7,3.6,66,0.00,,OVC110,0.00,VWS V14.01,2013-02-21 04:45:00,
2013-02-20 22:49:00,19.0,9.6,30.32,NE,42,0.0,2.2,66,0.00,,OVC110,0.00,VWS V14.01,2013-02-21 04:49:00,
2013-02-20 22:50:00,19.0,9.6,30.32,NE,42,0.0,0.0,66,0.00,,OVC110,0.00,VWS V14.01,2013-02-21 04:50:00,
2013-02-20 22:54:00,18.7,9.2,30.32,NE,45,2.7,2.7,66,0.00,,OVC110,0.00,VWS V14.01,2013-02-21 04:54:00,
2013-02-20 22:55:00,18.7,9.2,30.32,NE,45,2.7,2.7,66,0.00,,OVC110,0.00,VWS V14.01,2013-02-21 04:55:00,
2013-02-20 22:56:00,18.7,9.2,30.32,NE,47,4.0,4.0,66,0.00,,OVC110,0.00,VWS V14.01,2013-02-21 04:56:00,
2013-02-20 22:59:00,18.5,9.1,30.32,NE,47,3.1,3.1,66,0.00,,OVC110,0.00,VWS V14.01,2013-02-21 04:59:00,
2013-02-20 23:00:00,18.5,9.1,30.32,NE,47,2.2,3.1,66,0.00,,OVC110,0.00,VWS V14.01,2013-02-21 05:00:00,
2013-02-20 23:01:00,18.3,8.9,30.32,NE,47,2.2,2.7,66,0.00,,OVC110,0.00,VWS V14.01,2013-02-21 05:01:00,
2013-02-20 23:05:00,18.0,8.5,30.32,NE,48,2.2,4.0,66,0.00,,OVC110,0.00,VWS V14.01,2013-02-21 05:05:00,
2013-02-20 23:06:00,18.0,8.5,30.32,NE,48,0.0,2.7,66,0.00,,OVC110,0.00,VWS V14.01,2013-02-21 05:06:00,
2013-02-20 23:10:00,17.6,8.9,30.32,NE,49,4.0,4.0,68,0.00,,OVC110,0.00,VWS V14.01,2013-02-21 05:10:00,
2013-02-20 23:11:00,17.6,8.9,30.32,NE,48,3.6,4.0,68,0.00,,OVC110,0.00,VWS V14.01,2013-02-21 05:11:00,
2013-02-20 23:15:00,17.6,8.9,30.32,NE,46,0.0,0.0,68,0.00,,OVC110,0.00,VWS V14.01,2013-02-21 05:15:00,
2013-02-20 23:16:00,17.6,8.9,30.32,NE,46,2.7,3.1,68,0.00,,OVC110,0.00,VWS V14.01,2013-02-21 05:16:00,
2013-02-20 23:17:00,17.4,8.7,30.32,NE,46,2.2,3.1,68,0.00,,OVC110,0.00,VWS V14.01,2013-02-21 05:17:00,
2013-02-20 23:21:00,17.2,8.5,30.32,NE,46,0.0,0.0,68,0.00,,OVC110,0.00,VWS V14.01,2013-02-21 05:21:00,
2013-02-20 23:22:00,17.2,8.5,30.32,NE,46,0.0,0.0,68,0.00,,OVC110,0.00,VWS V14.01,2013-02-21 05:22:00,
2013-02-20 23:27:00,17.1,8.3,30.32,NE,47,0.0,2.2,68,0.00,,OVC110,0.00,VWS V14.01,2013-02-21 05:27:00,
2013-02-20 23:32:00,16.7,8.0,30.32,NE,47,0.0,0.0,68,0.00,,OVC110,0.00,VWS V14.01,2013-02-21 05:32:00,
2013-02-20 23:33:00,16.7,8.0,30.32,NE,48,0.0,0.0,68,0.00,,OVC110,0.00,VWS V14.01,2013-02-21 05:33:00,
2013-02-20 23:38:00,16.3,7.6,30.32,NE,47,0.0,0.0,68,0.00,,OVC110,0.00,VWS V14.01,2013-02-21 05:38:00,
2013-02-20 23:43:00,16.0,7.3,30.32,NE,48,0.0,0.0,68,0.00,,OVC110,0.00,VWS V14.01,2013-02-21 05:43:00,
2013-02-20 23:44:00,16.0,7.3,30.32,NE,48,0.0,0.0,68,0.00,,OVC110,0.00,VWS V14.01,2013-02-21 05:44:00,
2013-02-20 23:48:00,15.8,7.8,30.32,NE,48,0.0,0.0,70,0.00,,OVC110,0.00,VWS V14.01,2013-02-21 05:48:00,
2013-02-20 23:49:00,15.8,7.8,30.32,NE,48,0.0,0.0,70,0.00,,OVC110,0.00,VWS V14.01,2013-02-21 05:49:00,
2013-02-20 23:53:00,15.8,7.8,30.32,NE,48,0.0,0.0,70,0.00,,OVC110,0.00,VWS V14.01,2013-02-21 05:53:00,
2013-02-20 23:54:00,15.8,7.8,30.32,NE,48,0.0,0.0,70,0.00,,OVC110,0.00,VWS V14.01,2013-02-21 05:54:00,
2013-02-20 23:55:00,15.8,7.8,30.32,NE,48,0.0,0.0,70,0.00,,OVC110,0.00,VWS V14.01,2013-02-21 05:55:00,
2013-02-20 23:59:00,15.6,7.6,30.32,NE,48,0.0,0.0,70,0.00,,OVC110,0.00,VWS V14.01,2013-02-21 05:59:00,